Summary for KCOLONGM6

Ute Creek Golf Course, Longmont, CO 80504
Join the PWSweather.com Network
View data in metric units
Latest Conditions
Updated 10:21:29 AM MST Wednesday, Nov 26, 2014
Data Currently Today's Max Today's Min Today's Average
Temperature 34.0°F1.1°C 34.0°F1.1°C 27.5°F-2.5°C 29.2°F-1.6°C
Dew Point 22.3°F-5.4°C 26.4°F-3.1°C 21.2°F-6.0°C 23.3°F-4.8°C
Winds 2.0 mph ENE3.2 kmh ENE 6.0 mph S9.7 kmh S CalmCalm 1.8 mph2.9 kmh
Wind Gusts 2.9 mph4.7 kmh 11.0 mph17.7 kmh -- 3.6 mph5.8 kmh
Humidity 62% 85% 61% 79%
Pressure 30.24 in1024.0 mb 30.25 in1024.4 mb 30.19 in1022.4 mb 30.22 in1023.4 mb
Precipitation 0.00 in0.0 mm - - 0.00 in0.0 mm
Trends
 
Station Profile
Ute Creek Golf CourseLongmont, CO 80504

Lat: 40.194, Lon: -105.067
Elevation: 5014
Station Type: Davis Vantage Vue

Detailed Summary for Wed, Nov 26, 2014
Hour (MST) Temperature Dew Point Humidity Winds Wind Gusts Pressure Precip Precip Rate Daily Precip Total
10:21 AM 34.0°F1.1°C 22.3°F-5.4°C 62% 2.0 mph ENE3.2 kmh ENE 2.9 mph4.7 kmh 30.24 in1024.0 mb 0.00 in0.0 mm 0.00 in/hr0.0 mm/hr 0.00 in0.0 mm
10:20 AM 33.8°F1.0°C 22.1°F-5.5°C 62% 2.0 mph ENE3.2 kmh ENE 2.0 mph3.2 kmh 30.24 in1024.0 mb 0.00 in0.0 mm 0.00 in/hr0.0 mm/hr 0.00 in0.0 mm
10:19 AM 33.6°F0.9°C 21.9°F-5.6°C 62% 2.0 mph ENE3.2 kmh ENE 4.9 mph7.9 kmh 30.24 in1024.0 mb 0.00 in0.0 mm 0.00 in/hr0.0 mm/hr 0.00 in0.0 mm
10:18 AM 33.6°F0.9°C 22.5°F-5.3°C 63% 2.0 mph E3.2 kmh E 2.9 mph4.7 kmh 30.24 in1024.0 mb 0.00 in0.0 mm 0.00 in/hr0.0 mm/hr 0.00 in0.0 mm
10:17 AM 33.6°F0.9°C 21.9°F-5.6°C 62% 2.0 mph ENE3.2 kmh ENE 4.0 mph6.4 kmh 30.24 in1024.0 mb 0.00 in0.0 mm 0.00 in/hr0.0 mm/hr 0.00 in0.0 mm
10:16 AM 33.6°F0.9°C 21.6°F-5.8°C 61% 2.0 mph NE3.2 kmh NE 4.9 mph7.9 kmh 30.24 in1024.0 mb 0.00 in0.0 mm 0.00 in/hr0.0 mm/hr 0.00 in0.0 mm
10:15 AM 33.6°F0.9°C 21.9°F-5.6°C 62% 2.0 mph ESE3.2 kmh ESE 4.0 mph6.4 kmh 30.24 in1024.0 mb 0.00 in0.0 mm 0.00 in/hr0.0 mm/hr 0.00 in0.0 mm
10:14 AM 33.6°F0.9°C 22.8°F-5.1°C 64% 2.0 mph SE3.2 kmh SE 4.0 mph6.4 kmh 30.25 in1024.4 mb 0.00 in0.0 mm 0.00 in/hr0.0 mm/hr 0.00 in0.0 mm
10:13 AM 33.4°F0.8°C 22.3°F-5.4°C 63% 2.0 mph ENE3.2 kmh ENE 4.9 mph7.9 kmh 30.25 in1024.4 mb 0.00 in0.0 mm 0.00 in/hr0.0 mm/hr 0.00 in0.0 mm
10:12 AM 33.4°F0.8°C 22.3°F-5.4°C 63% 2.9 mph ESE4.7 kmh ESE 4.9 mph7.9 kmh 30.25 in1024.4 mb 0.00 in0.0 mm 0.00 in/hr0.0 mm/hr 0.00 in0.0 mm
10:11 AM 33.4°F0.8°C 21.4°F-5.9°C 61% 2.9 mph E4.7 kmh E 11.0 mph17.7 kmh 30.25 in1024.4 mb 0.00 in0.0 mm 0.00 in/hr0.0 mm/hr 0.00 in0.0 mm
10:10 AM 33.4°F0.8°C 21.7°F-5.7°C 62% 2.0 mph ENE3.2 kmh ENE 4.0 mph6.4 kmh 30.25 in1024.4 mb 0.00 in0.0 mm 0.00 in/hr0.0 mm/hr 0.00 in0.0 mm
10:09 AM 33.4°F0.8°C 22.3°F-5.4°C 63% 2.9 mph NE4.7 kmh NE 2.9 mph4.7 kmh 30.25 in1024.4 mb 0.00 in0.0 mm 0.00 in/hr0.0 mm/hr 0.00 in0.0 mm
10:08 AM 33.4°F0.8°C 22.3°F-5.4°C 63% 2.9 mph E4.7 kmh E 4.9 mph7.9 kmh 30.25 in1024.4 mb 0.00 in0.0 mm 0.00 in/hr0.0 mm/hr 0.00 in0.0 mm
10:07 AM 33.3°F0.7°C 22.5°F-5.3°C 64% 2.9 mph ESE4.7 kmh ESE 4.9 mph7.9 kmh 30.25 in1024.4 mb 0.00 in0.0 mm 0.00 in/hr0.0 mm/hr 0.00 in0.0 mm
10:06 AM 33.1°F0.6°C 22.3°F-5.4°C 64% 2.9 mph ENE4.7 kmh ENE 4.0 mph6.4 kmh 30.25 in1024.4 mb 0.00 in0.0 mm 0.00 in/hr0.0 mm/hr 0.00 in0.0 mm
10:05 AM 33.1°F0.6°C 22.3°F-5.4°C 64% 2.9 mph ESE4.7 kmh ESE 4.0 mph6.4 kmh 30.25 in1024.4 mb 0.00 in0.0 mm 0.00 in/hr0.0 mm/hr 0.00 in0.0 mm
10:04 AM 33.1°F0.6°C 21.6°F-5.8°C 62% 2.9 mph SE4.7 kmh SE 4.9 mph7.9 kmh 30.25 in1024.4 mb 0.00 in0.0 mm 0.00 in/hr0.0 mm/hr 0.00 in0.0 mm
10:03 AM 33.1°F0.6°C 21.6°F-5.8°C 62% 2.9 mph ENE4.7 kmh ENE 6.9 mph11.1 kmh 30.25 in1024.4 mb 0.00 in0.0 mm 0.00 in/hr0.0 mm/hr 0.00 in0.0 mm
10:02 AM 33.3°F0.7°C 21.7°F-5.7°C 62% 2.0 mph ENE3.2 kmh ENE 6.9 mph11.1 kmh 30.25 in1024.4 mb 0.00 in0.0 mm 0.00 in/hr0.0 mm/hr 0.00 in0.0 mm
10:01 AM 33.3°F0.7°C 22.1°F-5.5°C 63% 2.0 mph ENE3.2 kmh ENE 6.0 mph9.7 kmh 30.25 in1024.4 mb 0.00 in0.0 mm 0.00 in/hr0.0 mm/hr 0.00 in0.0 mm
10:00 AM 33.3°F0.7°C 22.1°F-5.5°C 63% 2.0 mph NE3.2 kmh NE 2.9 mph4.7 kmh 30.25 in1024.4 mb 0.00 in0.0 mm 0.00 in/hr0.0 mm/hr 0.00 in0.0 mm
09:59 AM 33.3°F0.7°C 21.7°F-5.7°C 62% 2.0 mph SW3.2 kmh SW 4.9 mph7.9 kmh 30.23 in1023.7 mb 0.00 in0.0 mm 0.00 in/hr0.0 mm/hr 0.00 in0.0 mm
09:58 AM 33.3°F0.7°C 21.7°F-5.7°C 62% 2.0 mph ESE3.2 kmh ESE 4.9 mph7.9 kmh 30.23 in1023.7 mb 0.00 in0.0 mm 0.00 in/hr0.0 mm/hr 0.00 in0.0 mm
09:57 AM 33.3°F0.7°C 22.1°F-5.5°C 63% 2.0 mph SE3.2 kmh SE 4.9 mph7.9 kmh 30.23 in1023.7 mb 0.00 in0.0 mm 0.00 in/hr0.0 mm/hr 0.00 in0.0 mm
09:56 AM 33.1°F0.6°C 22.3°F-5.4°C 64% 2.0 mph ENE3.2 kmh ENE 4.0 mph6.4 kmh 30.23 in1023.7 mb 0.00 in0.0 mm 0.00 in/hr0.0 mm/hr 0.00 in0.0 mm
09:55 AM 33.1°F0.6°C 22.3°F-5.4°C 64% 2.0 mph SSE3.2 kmh SSE 4.0 mph6.4 kmh 30.23 in1023.7 mb 0.00 in0.0 mm 0.00 in/hr0.0 mm/hr 0.00 in0.0 mm
09:54 AM 33.1°F0.6°C 21.9°F-5.6°C 63% 2.0 mph NE3.2 kmh NE 4.9 mph7.9 kmh 30.23 in1023.7 mb 0.00 in0.0 mm 0.00 in/hr0.0 mm/hr 0.00 in0.0 mm
09:53 AM 33.1°F0.6°C 21.9°F-5.6°C 63% 2.0 mph E3.2 kmh E 4.9 mph7.9 kmh 30.23 in1023.7 mb 0.00 in0.0 mm 0.00 in/hr0.0 mm/hr 0.00 in0.0 mm
09:52 AM 33.1°F0.6°C 22.3°F-5.4°C 64% 2.0 mph ENE3.2 kmh ENE 6.0 mph9.7 kmh 30.23 in1023.7 mb 0.00 in0.0 mm 0.00 in/hr0.0 mm/hr 0.00 in0.0 mm
09:51 AM 33.1°F0.6°C 22.3°F-5.4°C 64% 2.0 mph SE3.2 kmh SE 8.1 mph13.0 kmh 30.23 in1023.7 mb 0.00 in0.0 mm 0.00 in/hr0.0 mm/hr 0.00 in0.0 mm
09:50 AM 33.1°F0.6°C 22.6°F-5.2°C 65% 2.9 mph ESE4.7 kmh ESE 8.1 mph13.0 kmh 30.23 in1023.7 mb 0.00 in0.0 mm 0.00 in/hr0.0 mm/hr 0.00 in0.0 mm
09:49 AM 32.9°F0.5°C 22.5°F-5.3°C 65% 2.9 mph ENE4.7 kmh ENE 4.0 mph6.4 kmh 30.23 in1023.7 mb 0.00 in0.0 mm 0.00 in/hr0.0 mm/hr 0.00 in0.0 mm
09:48 AM 32.7°F0.4°C 22.3°F-5.4°C 65% 2.9 mph NW4.7 kmh NW 2.9 mph4.7 kmh 30.23 in1023.7 mb 0.00 in0.0 mm 0.00 in/hr0.0 mm/hr 0.00 in0.0 mm
09:47 AM 32.7°F0.4°C 22.3°F-5.4°C 65% 2.9 mph ESE4.7 kmh ESE 4.0 mph6.4 kmh 30.23 in1023.7 mb 0.00 in0.0 mm 0.00 in/hr0.0 mm/hr 0.00 in0.0 mm
09:46 AM 32.7°F0.4°C 22.3°F-5.4°C 65% 2.9 mph E4.7 kmh E 4.0 mph6.4 kmh 30.23 in1023.7 mb 0.00 in0.0 mm 0.00 in/hr0.0 mm/hr 0.00 in0.0 mm
09:45 AM 32.5°F0.3°C 21.7°F-5.7°C 64% 2.9 mph SE4.7 kmh SE 4.9 mph7.9 kmh 30.23 in1023.7 mb 0.00 in0.0 mm 0.00 in/hr0.0 mm/hr 0.00 in0.0 mm
09:44 AM 32.7°F0.4°C 21.9°F-5.6°C 64% 2.0 mph SSE3.2 kmh SSE 4.0 mph6.4 kmh 30.23 in1023.7 mb 0.00 in0.0 mm 0.00 in/hr0.0 mm/hr 0.00 in0.0 mm
09:43 AM 32.7°F0.4°C 21.6°F-5.8°C 63% 2.9 mph SE4.7 kmh SE 6.9 mph11.1 kmh 30.23 in1023.7 mb 0.00 in0.0 mm 0.00 in/hr0.0 mm/hr 0.00 in0.0 mm
09:42 AM 32.9°F0.5°C 22.1°F-5.5°C 64% 2.0 mph ESE3.2 kmh ESE 9.0 mph14.5 kmh 30.23 in1023.7 mb 0.00 in0.0 mm 0.00 in/hr0.0 mm/hr 0.00 in0.0 mm
09:41 AM 32.9°F0.5°C 22.1°F-5.5°C 64% 2.0 mph SE3.2 kmh SE 8.1 mph13.0 kmh 30.23 in1023.7 mb 0.00 in0.0 mm 0.00 in/hr0.0 mm/hr 0.00 in0.0 mm
09:40 AM 32.9°F0.5°C 22.8°F-5.1°C 66% 2.0 mph SE3.2 kmh SE 8.1 mph13.0 kmh 30.23 in1023.7 mb 0.00 in0.0 mm 0.00 in/hr0.0 mm/hr 0.00 in0.0 mm
09:39 AM 32.7°F0.4°C 22.3°F-5.4°C 65% 2.9 mph E4.7 kmh E 2.9 mph4.7 kmh 30.23 in1023.7 mb 0.00 in0.0 mm 0.00 in/hr0.0 mm/hr 0.00 in0.0 mm
09:38 AM 32.7°F0.4°C 22.3°F-5.4°C 65% 2.9 mph E4.7 kmh E 8.1 mph13.0 kmh 30.23 in1023.7 mb 0.00 in0.0 mm 0.00 in/hr0.0 mm/hr 0.00 in0.0 mm
09:37 AM 32.5°F0.3°C 22.1°F-5.5°C 65% 2.9 mph ESE4.7 kmh ESE 2.0 mph3.2 kmh 30.23 in1023.7 mb 0.00 in0.0 mm 0.00 in/hr0.0 mm/hr 0.00 in0.0 mm
09:36 AM 32.5°F0.3°C 22.1°F-5.5°C 65% 2.9 mph SE4.7 kmh SE 4.0 mph6.4 kmh 30.23 in1023.7 mb 0.00 in0.0 mm 0.00 in/hr0.0 mm/hr 0.00 in0.0 mm
09:35 AM 32.4°F0.2°C 22.3°F-5.4°C 66% 2.9 mph S4.7 kmh S 2.9 mph4.7 kmh 30.23 in1023.7 mb 0.00 in0.0 mm 0.00 in/hr0.0 mm/hr 0.00 in0.0 mm
09:34 AM 32.4°F0.2°C 21.9°F-5.6°C 65% 2.9 mph ENE4.7 kmh ENE 6.9 mph11.1 kmh 30.23 in1023.7 mb 0.00 in0.0 mm 0.00 in/hr0.0 mm/hr 0.00 in0.0 mm
09:33 AM 32.4°F0.2°C 21.9°F-5.6°C 65% 2.9 mph ESE4.7 kmh ESE 2.9 mph4.7 kmh 30.23 in1023.7 mb 0.00 in0.0 mm 0.00 in/hr0.0 mm/hr 0.00 in0.0 mm
09:32 AM 32.4°F0.2°C 21.9°F-5.6°C 65% 2.9 mph SE4.7 kmh SE 10.0 mph16.1 kmh 30.23 in1023.7 mb 0.00 in0.0 mm 0.00 in/hr0.0 mm/hr 0.00 in0.0 mm
09:31 AM 32.5°F0.3°C 21.7°F-5.7°C 64% 2.9 mph ESE4.7 kmh ESE 10.0 mph16.1 kmh 30.23 in1023.7 mb 0.00 in0.0 mm 0.00 in/hr0.0 mm/hr 0.00 in0.0 mm
09:30 AM 32.5°F0.3°C 22.1°F-5.5°C 65% 2.9 mph SE4.7 kmh SE 8.1 mph13.0 kmh 30.23 in1023.7 mb 0.00 in0.0 mm 0.00 in/hr0.0 mm/hr 0.00 in0.0 mm
09:29 AM 32.4°F0.2°C 21.9°F-5.6°C 65% 2.0 mph SE3.2 kmh SE 2.9 mph4.7 kmh 30.25 in1024.4 mb 0.00 in0.0 mm 0.00 in/hr0.0 mm/hr 0.00 in0.0 mm
09:28 AM 32.4°F0.2°C 21.9°F-5.6°C 65% 2.0 mph SE3.2 kmh SE 2.9 mph4.7 kmh 30.25 in1024.4 mb 0.00 in0.0 mm 0.00 in/hr0.0 mm/hr 0.00 in0.0 mm
09:27 AM 32.4°F0.2°C 21.9°F-5.6°C 65% 2.0 mph SSE3.2 kmh SSE 4.0 mph6.4 kmh 30.25 in1024.4 mb 0.00 in0.0 mm 0.00 in/hr0.0 mm/hr 0.00 in0.0 mm
09:26 AM 32.4°F0.2°C 22.3°F-5.4°C 66% 2.0 mph SSW3.2 kmh SSW 6.0 mph9.7 kmh 30.25 in1024.4 mb 0.00 in0.0 mm 0.00 in/hr0.0 mm/hr 0.00 in0.0 mm
09:25 AM 32.4°F0.2°C 22.3°F-5.4°C 66% 2.0 mph SSE3.2 kmh SSE 6.0 mph9.7 kmh 30.25 in1024.4 mb 0.00 in0.0 mm 0.00 in/hr0.0 mm/hr 0.00 in0.0 mm
09:24 AM 32.2°F0.1°C 22.5°F-5.3°C 67% 2.0 mph SSW3.2 kmh SSW 5.0 mph8.0 kmh 30.25 in1024.4 mb 0.00 in0.0 mm 0.00 in/hr0.0 mm/hr 0.00 in0.0 mm
09:23 AM 32.0°F0.0°C 22.6°F-5.2°C 68% 0.9 mph S1.4 kmh S 5.0 mph8.0 kmh 30.25 in1024.4 mb 0.00 in0.0 mm 0.00 in/hr0.0 mm/hr 0.00 in0.0 mm
09:22 AM 31.8°F-0.1°C 22.5°F-5.3°C 68% 0.9 mph SE1.4 kmh SE 2.0 mph3.2 kmh 30.25 in1024.4 mb 0.00 in0.0 mm 0.00 in/hr0.0 mm/hr 0.00 in0.0 mm
09:21 AM 31.6°F-0.2°C 22.3°F-5.4°C 68% 0.9 mph NE1.4 kmh NE 2.9 mph4.7 kmh 30.25 in1024.4 mb 0.00 in0.0 mm 0.00 in/hr0.0 mm/hr 0.00 in0.0 mm
09:20 AM 31.5°F-0.3°C 22.1°F-5.5°C 68% 2.0 mph E3.2 kmh E 2.9 mph4.7 kmh 30.25 in1024.4 mb 0.00 in0.0 mm 0.00 in/hr0.0 mm/hr 0.00 in0.0 mm
09:19 AM 31.3°F-0.4°C 22.3°F-5.4°C 69% 2.0 mph E3.2 kmh E 2.9 mph4.7 kmh 30.25 in1024.4 mb 0.00 in0.0 mm 0.00 in/hr0.0 mm/hr 0.00 in0.0 mm
09:18 AM 31.3°F-0.4°C 22.3°F-5.4°C 69% 2.0 mph SE3.2 kmh SE 2.9 mph4.7 kmh 30.25 in1024.4 mb 0.00 in0.0 mm 0.00 in/hr0.0 mm/hr 0.00 in0.0 mm
09:17 AM 31.3°F-0.4°C 21.6°F-5.8°C 67% 2.0 mph S3.2 kmh S 4.0 mph6.4 kmh 30.25 in1024.4 mb 0.00 in0.0 mm 0.00 in/hr0.0 mm/hr 0.00 in0.0 mm
09:16 AM 31.3°F-0.4°C 21.6°F-5.8°C 67% 2.0 mph SE3.2 kmh SE 4.0 mph6.4 kmh 30.25 in1024.4 mb 0.00 in0.0 mm 0.00 in/hr0.0 mm/hr 0.00 in0.0 mm
09:15 AM 31.3°F-0.4°C 21.2°F-6.0°C 66% 2.0 mph ESE3.2 kmh ESE 2.9 mph4.7 kmh 30.25 in1024.4 mb 0.00 in0.0 mm 0.00 in/hr0.0 mm/hr 0.00 in0.0 mm
09:14 AM 31.3°F-0.4°C 21.2°F-6.0°C 66% 2.0 mph SSW3.2 kmh SSW 2.9 mph4.7 kmh 30.23 in1023.7 mb 0.00 in0.0 mm 0.00 in/hr0.0 mm/hr 0.00 in0.0 mm
09:13 AM 31.5°F-0.3°C 21.7°F-5.7°C 67% 2.0 mph SE3.2 kmh SE 6.0 mph9.7 kmh 30.23 in1023.7 mb 0.00 in0.0 mm 0.00 in/hr0.0 mm/hr 0.00 in0.0 mm
09:12 AM 31.5°F-0.3°C 21.7°F-5.7°C 67% 2.0 mph E3.2 kmh E 8.0 mph12.9 kmh 30.23 in1023.7 mb 0.00 in0.0 mm 0.00 in/hr0.0 mm/hr 0.00 in0.0 mm
09:11 AM 31.5°F-0.3°C 21.7°F-5.7°C 67% 2.9 mph E4.7 kmh E 4.9 mph7.9 kmh 30.23 in1023.7 mb 0.00 in0.0 mm 0.00 in/hr0.0 mm/hr 0.00 in0.0 mm
09:10 AM 31.5°F-0.3°C 21.7°F-5.7°C 67% 2.9 mph ESE4.7 kmh ESE 4.9 mph7.9 kmh 30.23 in1023.7 mb 0.00 in0.0 mm 0.00 in/hr0.0 mm/hr 0.00 in0.0 mm
09:09 AM 31.5°F-0.3°C 21.7°F-5.7°C 67% 2.9 mph SE4.7 kmh SE 2.9 mph4.7 kmh 30.23 in1023.7 mb 0.00 in0.0 mm 0.00 in/hr0.0 mm/hr 0.00 in0.0 mm
09:08 AM 31.5°F-0.3°C 22.1°F-5.5°C 68% 2.9 mph SE4.7 kmh SE 2.9 mph4.7 kmh 30.23 in1023.7 mb 0.00 in0.0 mm 0.00 in/hr0.0 mm/hr 0.00 in0.0 mm
09:07 AM 31.6°F-0.2°C 21.9°F-5.6°C 67% 2.9 mph ENE4.7 kmh ENE 2.0 mph3.2 kmh 30.23 in1023.7 mb 0.00 in0.0 mm 0.00 in/hr0.0 mm/hr 0.00 in0.0 mm
09:06 AM 31.6°F-0.2°C 21.9°F-5.6°C 67% 4.0 mph ESE6.4 kmh ESE 2.9 mph4.7 kmh 30.23 in1023.7 mb 0.00 in0.0 mm 0.00 in/hr0.0 mm/hr 0.00 in0.0 mm
09:05 AM 31.6°F-0.2°C 21.9°F-5.6°C 67% 4.0 mph ESE6.4 kmh ESE 6.0 mph9.7 kmh 30.23 in1023.7 mb 0.00 in0.0 mm 0.00 in/hr0.0 mm/hr 0.00 in0.0 mm
09:04 AM 31.6°F-0.2°C 21.9°F-5.6°C 67% 2.9 mph SW4.7 kmh SW 6.9 mph11.1 kmh 30.23 in1023.7 mb 0.00 in0.0 mm 0.00 in/hr0.0 mm/hr 0.00 in0.0 mm
09:03 AM 31.5°F-0.3°C 22.1°F-5.5°C 68% 2.9 mph SE4.7 kmh SE 6.0 mph9.7 kmh 30.23 in1023.7 mb 0.00 in0.0 mm 0.00 in/hr0.0 mm/hr 0.00 in0.0 mm
09:02 AM 31.5°F-0.3°C 21.7°F-5.7°C 67% 2.9 mph SSE4.7 kmh SSE 9.0 mph14.5 kmh 30.23 in1023.7 mb 0.00 in0.0 mm 0.00 in/hr0.0 mm/hr 0.00 in0.0 mm
09:01 AM 31.5°F-0.3°C 21.7°F-5.7°C 67% 2.9 mph S4.7 kmh S 8.1 mph13.0 kmh 30.23 in1023.7 mb 0.00 in0.0 mm 0.00 in/hr0.0 mm/hr 0.00 in0.0 mm
09:00 AM 31.5°F-0.3°C 22.1°F-5.5°C 68% 2.9 mph SSW4.7 kmh SSW 6.0 mph9.7 kmh 30.23 in1023.7 mb 0.00 in0.0 mm 0.00 in/hr0.0 mm/hr 0.00 in0.0 mm
08:59 AM 31.3°F-0.4°C 21.9°F-5.6°C 68% 2.9 mph SE4.7 kmh SE 6.0 mph9.7 kmh 30.24 in1024.0 mb 0.00 in0.0 mm 0.00 in/hr0.0 mm/hr 0.00 in0.0 mm
08:58 AM 31.3°F-0.4°C 22.3°F-5.4°C 69% 2.9 mph SE4.7 kmh SE 4.9 mph7.9 kmh 30.24 in1024.0 mb 0.00 in0.0 mm 0.00 in/hr0.0 mm/hr 0.00 in0.0 mm
08:57 AM 31.1°F-0.5°C 22.5°F-5.3°C 70% 2.9 mph S4.7 kmh S 4.0 mph6.4 kmh 30.24 in1024.0 mb 0.00 in0.0 mm 0.00 in/hr0.0 mm/hr 0.00 in0.0 mm
08:56 AM 30.9°F-0.6°C 21.9°F-5.6°C 69% 2.9 mph SSE4.7 kmh SSE 4.0 mph6.4 kmh 30.24 in1024.0 mb 0.00 in0.0 mm 0.00 in/hr0.0 mm/hr 0.00 in0.0 mm
08:55 AM 30.9°F-0.6°C 21.9°F-5.6°C 69% 2.9 mph SE4.7 kmh SE 4.9 mph7.9 kmh 30.24 in1024.0 mb 0.00 in0.0 mm 0.00 in/hr0.0 mm/hr 0.00 in0.0 mm
08:54 AM 30.9°F-0.6°C 21.9°F-5.6°C 69% 2.9 mph ESE4.7 kmh ESE 4.9 mph7.9 kmh 30.24 in1024.0 mb 0.00 in0.0 mm 0.00 in/hr0.0 mm/hr 0.00 in0.0 mm
08:53 AM 30.7°F-0.7°C 22.1°F-5.5°C 70% 2.9 mph SE4.7 kmh SE 8.1 mph13.0 kmh 30.24 in1024.0 mb 0.00 in0.0 mm 0.00 in/hr0.0 mm/hr 0.00 in0.0 mm
08:52 AM 30.7°F-0.7°C 22.1°F-5.5°C 70% 2.0 mph SE3.2 kmh SE 6.0 mph9.7 kmh 30.24 in1024.0 mb 0.00 in0.0 mm 0.00 in/hr0.0 mm/hr 0.00 in0.0 mm
08:51 AM 30.7°F-0.7°C 22.5°F-5.3°C 71% 2.0 mph SE3.2 kmh SE 4.0 mph6.4 kmh 30.24 in1024.0 mb 0.00 in0.0 mm 0.00 in/hr0.0 mm/hr 0.00 in0.0 mm
08:50 AM 30.7°F-0.7°C 22.5°F-5.3°C 71% 2.0 mph S3.2 kmh S 8.1 mph13.0 kmh 30.24 in1024.0 mb 0.00 in0.0 mm 0.00 in/hr0.0 mm/hr 0.00 in0.0 mm
08:49 AM 30.6°F-0.8°C 22.6°F-5.2°C 72% 2.0 mph SE3.2 kmh SE 4.0 mph6.4 kmh 30.24 in1024.0 mb 0.00 in0.0 mm 0.00 in/hr0.0 mm/hr 0.00 in0.0 mm
08:48 AM 30.4°F-0.9°C 22.1°F-5.5°C 71% 2.0 mph SSE3.2 kmh SSE 4.9 mph7.9 kmh 30.24 in1024.0 mb 0.00 in0.0 mm 0.00 in/hr0.0 mm/hr 0.00 in0.0 mm
08:47 AM 30.4°F-0.9°C 22.1°F-5.5°C 71% 2.0 mph S3.2 kmh S 4.9 mph7.9 kmh 30.24 in1024.0 mb 0.00 in0.0 mm 0.00 in/hr0.0 mm/hr 0.00 in0.0 mm
08:46 AM 30.2°F-1.0°C 22.3°F-5.4°C 72% 2.0 mph SSE3.2 kmh SSE 6.0 mph9.7 kmh 30.24 in1024.0 mb 0.00 in0.0 mm 0.00 in/hr0.0 mm/hr 0.00 in0.0 mm
08:45 AM 30.0°F-1.1°C 22.1°F-5.5°C 72% 2.0 mph SE3.2 kmh SE 2.9 mph4.7 kmh 30.24 in1024.0 mb 0.00 in0.0 mm 0.00 in/hr0.0 mm/hr 0.00 in0.0 mm
08:44 AM 30.0°F-1.1°C 22.5°F-5.3°C 73% 2.0 mph SE3.2 kmh SE 4.0 mph6.4 kmh 30.22 in1023.4 mb 0.00 in0.0 mm 0.00 in/hr0.0 mm/hr 0.00 in0.0 mm
08:43 AM 29.8°F-1.2°C 21.9°F-5.6°C 72% 2.0 mph E3.2 kmh E 6.9 mph11.1 kmh 30.22 in1023.4 mb 0.00 in0.0 mm 0.00 in/hr0.0 mm/hr 0.00 in0.0 mm
08:42 AM 29.7°F-1.3°C 22.1°F-5.5°C 73% 2.0 mph SE3.2 kmh SE 2.9 mph4.7 kmh 30.22 in1023.4 mb 0.00 in0.0 mm 0.00 in/hr0.0 mm/hr 0.00 in0.0 mm
08:41 AM 29.7°F-1.3°C 21.7°F-5.7°C 72% 2.0 mph SE3.2 kmh SE 4.9 mph7.9 kmh 30.22 in1023.4 mb 0.00 in0.0 mm 0.00 in/hr0.0 mm/hr 0.00 in0.0 mm
08:40 AM 29.5°F-1.4°C 21.9°F-5.6°C 73% 2.0 mph ESE3.2 kmh ESE 8.1 mph13.0 kmh 30.22 in1023.4 mb 0.00 in0.0 mm 0.00 in/hr0.0 mm/hr 0.00 in0.0 mm
08:39 AM 29.5°F-1.4°C 21.9°F-5.6°C 73% 2.0 mph SE3.2 kmh SE 2.9 mph4.7 kmh 30.22 in1023.4 mb 0.00 in0.0 mm 0.00 in/hr0.0 mm/hr 0.00 in0.0 mm
08:38 AM 29.5°F-1.4°C 21.9°F-5.6°C 73% 2.9 mph E4.7 kmh E 4.0 mph6.4 kmh 30.22 in1023.4 mb 0.00 in0.0 mm 0.00 in/hr0.0 mm/hr 0.00 in0.0 mm
08:37 AM 29.3°F-1.5°C 21.7°F-5.7°C 73% 2.9 mph E4.7 kmh E 6.9 mph11.1 kmh 30.22 in1023.4 mb 0.00 in0.0 mm 0.00 in/hr0.0 mm/hr 0.00 in0.0 mm
08:36 AM 29.3°F-1.5°C 21.7°F-5.7°C 73% 2.9 mph SE4.7 kmh SE 6.9 mph11.1 kmh 30.22 in1023.4 mb 0.00 in0.0 mm 0.00 in/hr0.0 mm/hr 0.00 in0.0 mm
08:35 AM 29.1°F-1.6°C 21.9°F-5.6°C 74% 2.0 mph SE3.2 kmh SE 4.9 mph7.9 kmh 30.22 in1023.4 mb 0.00 in0.0 mm 0.00 in/hr0.0 mm/hr 0.00 in0.0 mm
08:34 AM 29.1°F-1.6°C 21.9°F-5.6°C 74% 2.0 mph ESE3.2 kmh ESE 4.9 mph7.9 kmh 30.22 in1023.4 mb 0.00 in0.0 mm 0.00 in/hr0.0 mm/hr 0.00 in0.0 mm
08:33 AM 28.9°F-1.7°C 22.1°F-5.5°C 75% 2.0 mph SE3.2 kmh SE 2.9 mph4.7 kmh 30.22 in1023.4 mb 0.00 in0.0 mm 0.00 in/hr0.0 mm/hr 0.00 in0.0 mm
08:32 AM 28.9°F-1.7°C 22.1°F-5.5°C 75% 2.0 mph SSE3.2 kmh SSE 4.9 mph7.9 kmh 30.22 in1023.4 mb 0.00 in0.0 mm 0.00 in/hr0.0 mm/hr 0.00 in0.0 mm
08:31 AM 28.9°F-1.7°C 22.1°F-5.5°C 75% 2.9 mph SE4.7 kmh SE 6.9 mph11.1 kmh 30.22 in1023.4 mb 0.00 in0.0 mm 0.00 in/hr0.0 mm/hr 0.00 in0.0 mm
08:30 AM 28.9°F-1.7°C 22.1°F-5.5°C 75% 2.9 mph E4.7 kmh E 4.0 mph6.4 kmh 30.22 in1023.4 mb 0.00 in0.0 mm 0.00 in/hr0.0 mm/hr 0.00 in0.0 mm
08:29 AM 28.9°F-1.7°C 22.3°F-5.4°C 76% 2.9 mph E4.7 kmh E 6.9 mph11.1 kmh 30.22 in1023.4 mb 0.00 in0.0 mm 0.00 in/hr0.0 mm/hr 0.00 in0.0 mm
08:28 AM 28.9°F-1.7°C 22.6°F-5.2°C 77% 2.0 mph SE3.2 kmh SE 6.0 mph9.7 kmh 30.22 in1023.4 mb 0.00 in0.0 mm 0.00 in/hr0.0 mm/hr 0.00 in0.0 mm
08:27 AM 28.8°F-1.8°C 22.5°F-5.3°C 77% 2.0 mph S3.2 kmh S 4.0 mph6.4 kmh 30.22 in1023.4 mb 0.00 in0.0 mm 0.00 in/hr0.0 mm/hr 0.00 in0.0 mm
08:26 AM 28.8°F-1.8°C 22.5°F-5.3°C 77% 2.0 mph S3.2 kmh S 2.0 mph3.2 kmh 30.22 in1023.4 mb 0.00 in0.0 mm 0.00 in/hr0.0 mm/hr 0.00 in0.0 mm
08:25 AM 28.8°F-1.8°C 22.5°F-5.3°C 77% 2.0 mph SSE3.2 kmh SSE 4.9 mph7.9 kmh 30.22 in1023.4 mb 0.00 in0.0 mm 0.00 in/hr0.0 mm/hr 0.00 in0.0 mm
08:24 AM 28.8°F-1.8°C 22.5°F-5.3°C 77% 2.0 mph SSE3.2 kmh SSE 4.9 mph7.9 kmh 30.22 in1023.4 mb 0.00 in0.0 mm 0.00 in/hr0.0 mm/hr 0.00 in0.0 mm
08:23 AM 28.8°F-1.8°C 22.5°F-5.3°C 77% 2.0 mph SSE3.2 kmh SSE 4.0 mph6.4 kmh 30.22 in1023.4 mb 0.00 in0.0 mm 0.00 in/hr0.0 mm/hr 0.00 in0.0 mm
08:22 AM 28.6°F-1.9°C 22.3°F-5.4°C 77% 2.0 mph SE3.2 kmh SE 6.0 mph9.7 kmh 30.22 in1023.4 mb 0.00 in0.0 mm 0.00 in/hr0.0 mm/hr 0.00 in0.0 mm
08:21 AM 28.6°F-1.9°C 22.6°F-5.2°C 78% 2.0 mph SE3.2 kmh SE 6.0 mph9.7 kmh 30.22 in1023.4 mb 0.00 in0.0 mm 0.00 in/hr0.0 mm/hr 0.00 in0.0 mm
08:20 AM 28.6°F-1.9°C 22.6°F-5.2°C 78% 2.9 mph ESE4.7 kmh ESE 4.0 mph6.4 kmh 30.22 in1023.4 mb 0.00 in0.0 mm 0.00 in/hr0.0 mm/hr 0.00 in0.0 mm
08:19 AM 28.6°F-1.9°C 22.6°F-5.2°C 78% 2.9 mph SE4.7 kmh SE 4.0 mph6.4 kmh 30.22 in1023.4 mb 0.00 in0.0 mm 0.00 in/hr0.0 mm/hr 0.00 in0.0 mm
08:18 AM 28.6°F-1.9°C 22.6°F-5.2°C 78% 2.9 mph SE4.7 kmh SE 4.9 mph7.9 kmh 30.22 in1023.4 mb 0.00 in0.0 mm 0.00 in/hr0.0 mm/hr 0.00 in0.0 mm
08:17 AM 28.6°F-1.9°C 22.6°F-5.2°C 78% 2.9 mph SE4.7 kmh SE 4.9 mph7.9 kmh 30.22 in1023.4 mb 0.00 in0.0 mm 0.00 in/hr0.0 mm/hr 0.00 in0.0 mm
08:16 AM 28.4°F-2.0°C 22.6°F-5.2°C 79% 2.9 mph SE4.7 kmh SE 6.0 mph9.7 kmh 30.22 in1023.4 mb 0.00 in0.0 mm 0.00 in/hr0.0 mm/hr 0.00 in0.0 mm
08:15 AM 28.2°F-2.1°C 22.6°F-5.2°C 79% 4.0 mph SE6.4 kmh SE 6.0 mph9.7 kmh 30.22 in1023.4 mb 0.00 in0.0 mm 0.00 in/hr0.0 mm/hr 0.00 in0.0 mm
08:14 AM 28.2°F-2.1°C 22.6°F-5.2°C 79% 4.0 mph S6.4 kmh S 6.0 mph9.7 kmh 30.22 in1023.4 mb 0.00 in0.0 mm 0.00 in/hr0.0 mm/hr 0.00 in0.0 mm
08:13 AM 28.2°F-2.1°C 22.6°F-5.2°C 79% 4.0 mph SE6.4 kmh SE 6.0 mph9.7 kmh 30.22 in1023.4 mb 0.00 in0.0 mm 0.00 in/hr0.0 mm/hr 0.00 in0.0 mm
08:12 AM 28.2°F-2.1°C 22.8°F-5.1°C 80% 4.0 mph SW6.4 kmh SW 6.0 mph9.7 kmh 30.22 in1023.4 mb 0.00 in0.0 mm 0.00 in/hr0.0 mm/hr 0.00 in0.0 mm
08:11 AM 28.2°F-2.1°C 22.8°F-5.1°C 80% 4.0 mph SE6.4 kmh SE 6.0 mph9.7 kmh 30.22 in1023.4 mb 0.00 in0.0 mm 0.00 in/hr0.0 mm/hr 0.00 in0.0 mm
08:10 AM 28.0°F-2.2°C 23.0°F-5.0°C 81% 4.9 mph S7.9 kmh S 6.0 mph9.7 kmh 30.22 in1023.4 mb 0.00 in0.0 mm 0.00 in/hr0.0 mm/hr 0.00 in0.0 mm
08:09 AM 28.0°F-2.2°C 23.0°F-5.0°C 81% 4.9 mph SE7.9 kmh SE 6.0 mph9.7 kmh 30.22 in1023.4 mb 0.00 in0.0 mm 0.00 in/hr0.0 mm/hr 0.00 in0.0 mm
08:08 AM 28.0°F-2.2°C 23.0°F-5.0°C 81% 4.9 mph SSW7.9 kmh SSW 8.1 mph13.0 kmh 30.22 in1023.4 mb 0.00 in0.0 mm 0.00 in/hr0.0 mm/hr 0.00 in0.0 mm
08:07 AM 28.0°F-2.2°C 23.0°F-5.0°C 81% 4.9 mph S7.9 kmh S 6.9 mph11.1 kmh 30.22 in1023.4 mb 0.00 in0.0 mm 0.00 in/hr0.0 mm/hr 0.00 in0.0 mm
08:06 AM 28.0°F-2.2°C 22.6°F-5.2°C 80% 4.9 mph SSW7.9 kmh SSW 10.1 mph16.3 kmh 30.22 in1023.4 mb 0.00 in0.0 mm 0.00 in/hr0.0 mm/hr 0.00 in0.0 mm
08:05 AM 27.9°F-2.3°C 22.8°F-5.1°C 81% 4.9 mph S7.9 kmh S 10.1 mph16.3 kmh 30.22 in1023.4 mb 0.00 in0.0 mm 0.00 in/hr0.0 mm/hr 0.00 in0.0 mm
08:04 AM 27.9°F-2.3°C 22.8°F-5.1°C 81% 4.9 mph S7.9 kmh S 6.9 mph11.1 kmh 30.22 in1023.4 mb 0.00 in0.0 mm 0.00 in/hr0.0 mm/hr 0.00 in0.0 mm
08:03 AM 27.9°F-2.3°C 22.8°F-5.1°C 81% 4.9 mph SSW7.9 kmh SSW 6.0 mph9.7 kmh 30.22 in1023.4 mb 0.00 in0.0 mm 0.00 in/hr0.0 mm/hr 0.00 in0.0 mm
08:02 AM 27.9°F-2.3°C 22.8°F-5.1°C 81% 4.9 mph S7.9 kmh S 8.1 mph13.0 kmh 30.22 in1023.4 mb 0.00 in0.0 mm 0.00 in/hr0.0 mm/hr 0.00 in0.0 mm
08:01 AM 27.9°F-2.3°C 22.8°F-5.1°C 81% 4.0 mph SSE6.4 kmh SSE 6.9 mph11.1 kmh 30.22 in1023.4 mb 0.00 in0.0 mm 0.00 in/hr0.0 mm/hr 0.00 in0.0 mm
08:00 AM 27.9°F-2.3°C 22.8°F-5.1°C 81% 4.0 mph S6.4 kmh S 6.9 mph11.1 kmh 30.23 in1023.7 mb 0.00 in0.0 mm 0.00 in/hr0.0 mm/hr 0.00 in0.0 mm
07:59 AM 27.9°F-2.3°C 22.8°F-5.1°C 81% 4.0 mph SSW6.4 kmh SSW 6.9 mph11.1 kmh 30.23 in1023.7 mb 0.00 in0.0 mm 0.00 in/hr0.0 mm/hr 0.00 in0.0 mm
07:58 AM 27.9°F-2.3°C 22.8°F-5.1°C 81% 4.0 mph SW6.4 kmh SW 8.0 mph12.9 kmh 30.23 in1023.7 mb 0.00 in0.0 mm 0.00 in/hr0.0 mm/hr 0.00 in0.0 mm
07:57 AM 27.9°F-2.3°C 22.8°F-5.1°C 81% 4.0 mph SSW6.4 kmh SSW 8.0 mph12.9 kmh 30.23 in1023.7 mb 0.00 in0.0 mm 0.00 in/hr0.0 mm/hr 0.00 in0.0 mm
07:56 AM 27.7°F-2.4°C 22.6°F-5.2°C 81% 4.0 mph SSW6.4 kmh SSW 4.9 mph7.9 kmh 30.23 in1023.7 mb 0.00 in0.0 mm 0.00 in/hr0.0 mm/hr 0.00 in0.0 mm
07:55 AM 27.7°F-2.4°C 22.6°F-5.2°C 81% 4.0 mph SSE6.4 kmh SSE 4.9 mph7.9 kmh 30.23 in1023.7 mb 0.00 in0.0 mm 0.00 in/hr0.0 mm/hr 0.00 in0.0 mm
07:54 AM 27.7°F-2.4°C 22.6°F-5.2°C 81% 4.9 mph S7.9 kmh S 4.0 mph6.4 kmh 30.23 in1023.7 mb 0.00 in0.0 mm 0.00 in/hr0.0 mm/hr 0.00 in0.0 mm
07:53 AM 27.7°F-2.4°C 22.6°F-5.2°C 81% 4.9 mph S7.9 kmh S 6.0 mph9.7 kmh 30.23 in1023.7 mb 0.00 in0.0 mm 0.00 in/hr0.0 mm/hr 0.00 in0.0 mm
07:52 AM 27.7°F-2.4°C 22.6°F-5.2°C 81% 4.9 mph SSE7.9 kmh SSE 4.9 mph7.9 kmh 30.23 in1023.7 mb 0.00 in0.0 mm 0.00 in/hr0.0 mm/hr 0.00 in0.0 mm
07:51 AM 27.7°F-2.4°C 22.6°F-5.2°C 81% 6.0 mph S9.7 kmh S 6.0 mph9.7 kmh 30.23 in1023.7 mb 0.00 in0.0 mm 0.00 in/hr0.0 mm/hr 0.00 in0.0 mm
07:50 AM 27.7°F-2.4°C 22.6°F-5.2°C 81% 6.0 mph SSE9.7 kmh SSE 6.9 mph11.1 kmh 30.23 in1023.7 mb 0.00 in0.0 mm 0.00 in/hr0.0 mm/hr 0.00 in0.0 mm
07:49 AM 27.7°F-2.4°C 22.6°F-5.2°C 81% 4.9 mph S7.9 kmh S 6.9 mph11.1 kmh 30.23 in1023.7 mb 0.00 in0.0 mm 0.00 in/hr0.0 mm/hr 0.00 in0.0 mm
07:48 AM 27.7°F-2.4°C 22.6°F-5.2°C 81% 4.9 mph S7.9 kmh S 8.1 mph13.0 kmh 30.23 in1023.7 mb 0.00 in0.0 mm 0.00 in/hr0.0 mm/hr 0.00 in0.0 mm
07:47 AM 27.7°F-2.4°C 22.6°F-5.2°C 81% 4.9 mph SSW7.9 kmh SSW 8.1 mph13.0 kmh 30.23 in1023.7 mb 0.00 in0.0 mm 0.00 in/hr0.0 mm/hr 0.00 in0.0 mm
07:46 AM 27.7°F-2.4°C 22.8°F-5.1°C 82% 4.9 mph S7.9 kmh S 6.9 mph11.1 kmh 30.23 in1023.7 mb 0.00 in0.0 mm 0.00 in/hr0.0 mm/hr 0.00 in0.0 mm
07:45 AM 27.7°F-2.4°C 22.8°F-5.1°C 82% 4.9 mph S7.9 kmh S 8.1 mph13.0 kmh 30.23 in1023.7 mb 0.00 in0.0 mm 0.00 in/hr0.0 mm/hr 0.00 in0.0 mm
07:44 AM 27.7°F-2.4°C 22.8°F-5.1°C 82% 4.9 mph S7.9 kmh S 6.9 mph11.1 kmh 30.23 in1023.7 mb 0.00 in0.0 mm 0.00 in/hr0.0 mm/hr 0.00 in0.0 mm
07:43 AM 27.7°F-2.4°C 22.8°F-5.1°C 82% 4.9 mph SSW7.9 kmh SSW 6.9 mph11.1 kmh 30.23 in1023.7 mb 0.00 in0.0 mm 0.00 in/hr0.0 mm/hr 0.00 in0.0 mm
07:42 AM 27.7°F-2.4°C 22.8°F-5.1°C 82% 4.9 mph S7.9 kmh S 9.0 mph14.5 kmh 30.23 in1023.7 mb 0.00 in0.0 mm 0.00 in/hr0.0 mm/hr 0.00 in0.0 mm
07:41 AM 27.7°F-2.4°C 22.6°F-5.2°C 81% 4.0 mph SSW6.4 kmh SSW 9.0 mph14.5 kmh 30.23 in1023.7 mb 0.00 in0.0 mm 0.00 in/hr0.0 mm/hr 0.00 in0.0 mm
07:40 AM 27.7°F-2.4°C 22.8°F-5.1°C 82% 4.0 mph SSW6.4 kmh SSW 4.9 mph7.9 kmh 30.23 in1023.7 mb 0.00 in0.0 mm 0.00 in/hr0.0 mm/hr 0.00 in0.0 mm
07:39 AM 27.7°F-2.4°C 22.8°F-5.1°C 82% 4.0 mph SW6.4 kmh SW 6.9 mph11.1 kmh 30.23 in1023.7 mb 0.00 in0.0 mm 0.00 in/hr0.0 mm/hr 0.00 in0.0 mm
07:38 AM 27.7°F-2.4°C 22.8°F-5.1°C 82% 4.0 mph SSW6.4 kmh SSW 6.0 mph9.7 kmh 30.23 in1023.7 mb 0.00 in0.0 mm 0.00 in/hr0.0 mm/hr 0.00 in0.0 mm
07:37 AM 27.7°F-2.4°C 22.8°F-5.1°C 82% 4.0 mph SSW6.4 kmh SSW 6.0 mph9.7 kmh 30.23 in1023.7 mb 0.00 in0.0 mm 0.00 in/hr0.0 mm/hr 0.00 in0.0 mm
07:36 AM 27.7°F-2.4°C 22.8°F-5.1°C 82% 4.0 mph SSW6.4 kmh SSW 4.9 mph7.9 kmh 30.23 in1023.7 mb 0.00 in0.0 mm 0.00 in/hr0.0 mm/hr 0.00 in0.0 mm
07:35 AM 27.7°F-2.4°C 22.8°F-5.1°C 82% 4.0 mph S6.4 kmh S 6.0 mph9.7 kmh 30.23 in1023.7 mb 0.00 in0.0 mm 0.00 in/hr0.0 mm/hr 0.00 in0.0 mm
07:34 AM 27.7°F-2.4°C 22.8°F-5.1°C 82% 4.0 mph SSW6.4 kmh SSW 6.0 mph9.7 kmh 30.23 in1023.7 mb 0.00 in0.0 mm 0.00 in/hr0.0 mm/hr 0.00 in0.0 mm
07:33 AM 27.7°F-2.4°C 22.8°F-5.1°C 82% 4.0 mph SSE6.4 kmh SSE 6.9 mph11.1 kmh 30.23 in1023.7 mb 0.00 in0.0 mm 0.00 in/hr0.0 mm/hr 0.00 in0.0 mm
07:32 AM 27.7°F-2.4°C 22.8°F-5.1°C 82% 4.0 mph S6.4 kmh S 6.0 mph9.7 kmh 30.23 in1023.7 mb 0.00 in0.0 mm 0.00 in/hr0.0 mm/hr 0.00 in0.0 mm
07:31 AM 27.7°F-2.4°C 22.8°F-5.1°C 82% 4.0 mph S6.4 kmh S 6.9 mph11.1 kmh 30.23 in1023.7 mb 0.00 in0.0 mm 0.00 in/hr0.0 mm/hr 0.00 in0.0 mm
07:30 AM 27.7°F-2.4°C 22.8°F-5.1°C 82% 2.9 mph S4.7 kmh S 6.9 mph11.1 kmh 30.23 in1023.7 mb 0.00 in0.0 mm 0.00 in/hr0.0 mm/hr 0.00 in0.0 mm
07:29 AM 27.7°F-2.4°C 22.8°F-5.1°C 82% 2.9 mph SSE4.7 kmh SSE 6.0 mph9.7 kmh 30.25 in1024.4 mb 0.00 in0.0 mm 0.00 in/hr0.0 mm/hr 0.00 in0.0 mm
07:28 AM 27.7°F-2.4°C 22.8°F-5.1°C 82% 2.9 mph S4.7 kmh S 6.9 mph11.1 kmh 30.25 in1024.4 mb 0.00 in0.0 mm 0.00 in/hr0.0 mm/hr 0.00 in0.0 mm
07:27 AM 27.7°F-2.4°C 22.8°F-5.1°C 82% 2.0 mph S3.2 kmh S 4.9 mph7.9 kmh 30.25 in1024.4 mb 0.00 in0.0 mm 0.00 in/hr0.0 mm/hr 0.00 in0.0 mm
07:26 AM 27.7°F-2.4°C 22.8°F-5.1°C 82% 2.0 mph S3.2 kmh S 4.9 mph7.9 kmh 30.25 in1024.4 mb 0.00 in0.0 mm 0.00 in/hr0.0 mm/hr 0.00 in0.0 mm
07:25 AM 27.7°F-2.4°C 23.2°F-4.9°C 83% 2.0 mph SE3.2 kmh SE 4.9 mph7.9 kmh 30.25 in1024.4 mb 0.00 in0.0 mm 0.00 in/hr0.0 mm/hr 0.00 in0.0 mm
07:24 AM 27.7°F-2.4°C 23.2°F-4.9°C 83% 2.0 mph SE3.2 kmh SE 2.9 mph4.7 kmh 30.25 in1024.4 mb 0.00 in0.0 mm 0.00 in/hr0.0 mm/hr 0.00 in0.0 mm
07:23 AM 27.7°F-2.4°C 23.2°F-4.9°C 83% 2.0 mph SSE3.2 kmh SSE 6.0 mph9.7 kmh 30.25 in1024.4 mb 0.00 in0.0 mm 0.00 in/hr0.0 mm/hr 0.00 in0.0 mm
07:22 AM 27.7°F-2.4°C 22.8°F-5.1°C 82% 2.0 mph S3.2 kmh S 4.0 mph6.4 kmh 30.25 in1024.4 mb 0.00 in0.0 mm 0.00 in/hr0.0 mm/hr 0.00 in0.0 mm
07:21 AM 27.7°F-2.4°C 22.8°F-5.1°C 82% 2.0 mph S3.2 kmh S 2.9 mph4.7 kmh 30.25 in1024.4 mb 0.00 in0.0 mm 0.00 in/hr0.0 mm/hr 0.00 in0.0 mm
07:20 AM 27.7°F-2.4°C 22.8°F-5.1°C 82% 2.0 mph SSW3.2 kmh SSW 4.0 mph6.4 kmh 30.25 in1024.4 mb 0.00 in0.0 mm 0.00 in/hr0.0 mm/hr 0.00 in0.0 mm
07:19 AM 27.7°F-2.4°C 23.2°F-4.9°C 83% 2.0 mph SSW3.2 kmh SSW 2.9 mph4.7 kmh 30.25 in1024.4 mb 0.00 in0.0 mm 0.00 in/hr0.0 mm/hr 0.00 in0.0 mm
07:18 AM 27.7°F-2.4°C 23.2°F-4.9°C 83% 2.0 mph S3.2 kmh S 2.0 mph3.2 kmh 30.25 in1024.4 mb 0.00 in0.0 mm 0.00 in/hr0.0 mm/hr 0.00 in0.0 mm
07:17 AM 27.5°F-2.5°C 23.0°F-5.0°C 83% 2.0 mph SE3.2 kmh SE 2.9 mph4.7 kmh 30.25 in1024.4 mb 0.00 in0.0 mm 0.00 in/hr0.0 mm/hr 0.00 in0.0 mm
07:16 AM 27.7°F-2.4°C 23.2°F-4.9°C 83% 2.0 mph SSE3.2 kmh SSE 4.0 mph6.4 kmh 30.25 in1024.4 mb 0.00 in0.0 mm 0.00 in/hr0.0 mm/hr 0.00 in0.0 mm
07:15 AM 27.7°F-2.4°C 23.2°F-4.9°C 83% 2.0 mph SE3.2 kmh SE 4.0 mph6.4 kmh 30.23 in1023.7 mb 0.00 in0.0 mm 0.00 in/hr0.0 mm/hr 0.00 in0.0 mm
07:14 AM 27.5°F-2.5°C 23.0°F-5.0°C 83% 2.0 mph SSW3.2 kmh SSW 2.9 mph4.7 kmh 30.23 in1023.7 mb 0.00 in0.0 mm 0.00 in/hr0.0 mm/hr 0.00 in0.0 mm
07:13 AM 27.5°F-2.5°C 23.0°F-5.0°C 83% 2.0 mph S3.2 kmh S 4.0 mph6.4 kmh 30.23 in1023.7 mb 0.00 in0.0 mm 0.00 in/hr0.0 mm/hr 0.00 in0.0 mm
07:11 AM 27.5°F-2.5°C 23.0°F-5.0°C 83% 2.9 mph ESE4.7 kmh ESE 4.0 mph6.4 kmh 30.23 in1023.7 mb 0.00 in0.0 mm 0.00 in/hr0.0 mm/hr 0.00 in0.0 mm
07:10 AM 27.5°F-2.5°C 23.0°F-5.0°C 83% 2.9 mph SW4.7 kmh SW 4.0 mph6.4 kmh 30.23 in1023.7 mb 0.00 in0.0 mm 0.00 in/hr0.0 mm/hr 0.00 in0.0 mm
07:09 AM 27.5°F-2.5°C 23.0°F-5.0°C 83% 2.9 mph S4.7 kmh S 2.9 mph4.7 kmh 30.23 in1023.7 mb 0.00 in0.0 mm 0.00 in/hr0.0 mm/hr 0.00 in0.0 mm
07:08 AM 27.5°F-2.5°C 23.0°F-5.0°C 83% 2.9 mph S4.7 kmh S 4.9 mph7.9 kmh 30.23 in1023.7 mb 0.00 in0.0 mm 0.00 in/hr0.0 mm/hr 0.00 in0.0 mm
07:07 AM 27.5°F-2.5°C 23.0°F-5.0°C 83% 2.9 mph S4.7 kmh S 6.0 mph9.7 kmh 30.23 in1023.7 mb 0.00 in0.0 mm 0.00 in/hr0.0 mm/hr 0.00 in0.0 mm
07:06 AM 27.5°F-2.5°C 23.0°F-5.0°C 83% 4.0 mph S6.4 kmh S 4.9 mph7.9 kmh 30.23 in1023.7 mb 0.00 in0.0 mm 0.00 in/hr0.0 mm/hr 0.00 in0.0 mm
07:05 AM 27.5°F-2.5°C 23.0°F-5.0°C 83% 4.0 mph S6.4 kmh S 4.9 mph7.9 kmh 30.23 in1023.7 mb 0.00 in0.0 mm 0.00 in/hr0.0 mm/hr 0.00 in0.0 mm
07:04 AM 27.5°F-2.5°C 23.0°F-5.0°C 83% 4.0 mph SE6.4 kmh SE 4.9 mph7.9 kmh 30.23 in1023.7 mb 0.00 in0.0 mm 0.00 in/hr0.0 mm/hr 0.00 in0.0 mm
07:03 AM 27.5°F-2.5°C 23.0°F-5.0°C 83% 4.0 mph SE6.4 kmh SE 6.9 mph11.1 kmh 30.23 in1023.7 mb 0.00 in0.0 mm 0.00 in/hr0.0 mm/hr 0.00 in0.0 mm
07:02 AM 27.5°F-2.5°C 23.0°F-5.0°C 83% 4.0 mph S6.4 kmh S 6.9 mph11.1 kmh 30.23 in1023.7 mb 0.00 in0.0 mm 0.00 in/hr0.0 mm/hr 0.00 in0.0 mm
07:01 AM 27.5°F-2.5°C 23.0°F-5.0°C 83% 4.0 mph SSW6.4 kmh SSW 6.9 mph11.1 kmh 30.23 in1023.7 mb 0.00 in0.0 mm 0.00 in/hr0.0 mm/hr 0.00 in0.0 mm
07:00 AM 27.5°F-2.5°C 23.0°F-5.0°C 83% 4.0 mph S6.4 kmh S 6.0 mph9.7 kmh 30.24 in1024.0 mb 0.00 in0.0 mm 0.00 in/hr0.0 mm/hr 0.00 in0.0 mm
06:59 AM 27.5°F-2.5°C 23.0°F-5.0°C 83% 4.0 mph SSW6.4 kmh SSW 6.0 mph9.7 kmh 30.24 in1024.0 mb 0.00 in0.0 mm 0.00 in/hr0.0 mm/hr 0.00 in0.0 mm
06:58 AM 27.5°F-2.5°C 23.0°F-5.0°C 83% 4.0 mph SSW6.4 kmh SSW 6.0 mph9.7 kmh 30.24 in1024.0 mb 0.00 in0.0 mm 0.00 in/hr0.0 mm/hr 0.00 in0.0 mm
06:57 AM 27.5°F-2.5°C 23.0°F-5.0°C 83% 4.0 mph SE6.4 kmh SE 6.0 mph9.7 kmh 30.24 in1024.0 mb 0.00 in0.0 mm 0.00 in/hr0.0 mm/hr 0.00 in0.0 mm
06:56 AM 27.5°F-2.5°C 23.0°F-5.0°C 83% 4.0 mph SSW6.4 kmh SSW 6.9 mph11.1 kmh 30.24 in1024.0 mb 0.00 in0.0 mm 0.00 in/hr0.0 mm/hr 0.00 in0.0 mm
06:55 AM 27.5°F-2.5°C 23.0°F-5.0°C 83% 4.0 mph SSE6.4 kmh SSE 6.0 mph9.7 kmh 30.24 in1024.0 mb 0.00 in0.0 mm 0.00 in/hr0.0 mm/hr 0.00 in0.0 mm
06:54 AM 27.5°F-2.5°C 23.0°F-5.0°C 83% 4.0 mph S6.4 kmh S 2.9 mph4.7 kmh 30.24 in1024.0 mb 0.00 in0.0 mm 0.00 in/hr0.0 mm/hr 0.00 in0.0 mm
06:53 AM 27.5°F-2.5°C 23.0°F-5.0°C 83% 4.0 mph SE6.4 kmh SE 6.9 mph11.1 kmh 30.24 in1024.0 mb 0.00 in0.0 mm 0.00 in/hr0.0 mm/hr 0.00 in0.0 mm
06:52 AM 27.5°F-2.5°C 23.0°F-5.0°C 83% 4.0 mph S6.4 kmh S 6.9 mph11.1 kmh 30.24 in1024.0 mb 0.00 in0.0 mm 0.00 in/hr0.0 mm/hr 0.00 in0.0 mm
06:51 AM 27.5°F-2.5°C 23.0°F-5.0°C 83% 4.0 mph SSW6.4 kmh SSW 6.0 mph9.7 kmh 30.24 in1024.0 mb 0.00 in0.0 mm 0.00 in/hr0.0 mm/hr 0.00 in0.0 mm
06:50 AM 27.5°F-2.5°C 23.0°F-5.0°C 83% 4.0 mph S6.4 kmh S 6.0 mph9.7 kmh 30.24 in1024.0 mb 0.00 in0.0 mm 0.00 in/hr0.0 mm/hr 0.00 in0.0 mm
06:49 AM 27.5°F-2.5°C 23.0°F-5.0°C 83% 4.0 mph SSW6.4 kmh SSW 6.9 mph11.1 kmh 30.24 in1024.0 mb 0.00 in0.0 mm 0.00 in/hr0.0 mm/hr 0.00 in0.0 mm
06:48 AM 27.5°F-2.5°C 23.0°F-5.0°C 83% 4.0 mph S6.4 kmh S 6.9 mph11.1 kmh 30.24 in1024.0 mb 0.00 in0.0 mm 0.00 in/hr0.0 mm/hr 0.00 in0.0 mm
06:47 AM 27.5°F-2.5°C 23.4°F-4.8°C 84% 4.0 mph SW6.4 kmh SW 6.9 mph11.1 kmh 30.24 in1024.0 mb 0.00 in0.0 mm 0.00 in/hr0.0 mm/hr 0.00 in0.0 mm
06:46 AM 27.5°F-2.5°C 23.4°F-4.8°C 84% 4.0 mph S6.4 kmh S 4.0 mph6.4 kmh 30.24 in1024.0 mb 0.00 in0.0 mm 0.00 in/hr0.0 mm/hr 0.00 in0.0 mm
06:45 AM 27.5°F-2.5°C 23.4°F-4.8°C 84% 4.0 mph SW6.4 kmh SW 4.9 mph7.9 kmh 30.23 in1023.7 mb 0.00 in0.0 mm 0.00 in/hr0.0 mm/hr 0.00 in0.0 mm
06:44 AM 27.5°F-2.5°C 23.0°F-5.0°C 83% 4.0 mph SSW6.4 kmh SSW 9.0 mph14.5 kmh 30.23 in1023.7 mb 0.00 in0.0 mm 0.00 in/hr0.0 mm/hr 0.00 in0.0 mm
06:43 AM 27.5°F-2.5°C 23.4°F-4.8°C 84% 4.0 mph SSW6.4 kmh SSW 9.0 mph14.5 kmh 30.23 in1023.7 mb 0.00 in0.0 mm 0.00 in/hr0.0 mm/hr 0.00 in0.0 mm
06:42 AM 27.5°F-2.5°C 23.4°F-4.8°C 84% 4.0 mph SSW6.4 kmh SSW 6.0 mph9.7 kmh 30.23 in1023.7 mb 0.00 in0.0 mm 0.00 in/hr0.0 mm/hr 0.00 in0.0 mm
06:41 AM 27.5°F-2.5°C 23.4°F-4.8°C 84% 4.0 mph S6.4 kmh S 6.0 mph9.7 kmh 30.23 in1023.7 mb 0.00 in0.0 mm 0.00 in/hr0.0 mm/hr 0.00 in0.0 mm
06:40 AM 27.5°F-2.5°C 23.4°F-4.8°C 84% 4.0 mph S6.4 kmh S 6.9 mph11.1 kmh 30.23 in1023.7 mb 0.00 in0.0 mm 0.00 in/hr0.0 mm/hr 0.00 in0.0 mm
06:39 AM 27.5°F-2.5°C 23.4°F-4.8°C 84% 2.9 mph S4.7 kmh S 4.9 mph7.9 kmh 30.23 in1023.7 mb 0.00 in0.0 mm 0.00 in/hr0.0 mm/hr 0.00 in0.0 mm
06:38 AM 27.5°F-2.5°C 23.4°F-4.8°C 84% 2.9 mph SSW4.7 kmh SSW 4.0 mph6.4 kmh 30.23 in1023.7 mb 0.00 in0.0 mm 0.00 in/hr0.0 mm/hr 0.00 in0.0 mm
06:37 AM 27.5°F-2.5°C 23.0°F-5.0°C 83% 2.9 mph SE4.7 kmh SE 4.0 mph6.4 kmh 30.23 in1023.7 mb 0.00 in0.0 mm 0.00 in/hr0.0 mm/hr 0.00 in0.0 mm
06:36 AM 27.5°F-2.5°C 23.0°F-5.0°C 83% 2.9 mph S4.7 kmh S 6.0 mph9.7 kmh 30.23 in1023.7 mb 0.00 in0.0 mm 0.00 in/hr0.0 mm/hr 0.00 in0.0 mm
06:35 AM 27.7°F-2.4°C 23.2°F-4.9°C 83% 2.9 mph SSW4.7 kmh SSW 4.9 mph7.9 kmh 30.23 in1023.7 mb 0.00 in0.0 mm 0.00 in/hr0.0 mm/hr 0.00 in0.0 mm
06:34 AM 27.7°F-2.4°C 23.2°F-4.9°C 83% 2.9 mph SSW4.7 kmh SSW 4.9 mph7.9 kmh 30.23 in1023.7 mb 0.00 in0.0 mm 0.00 in/hr0.0 mm/hr 0.00 in0.0 mm
06:33 AM 27.7°F-2.4°C 23.2°F-4.9°C 83% 2.9 mph S4.7 kmh S 4.0 mph6.4 kmh 30.23 in1023.7 mb 0.00 in0.0 mm 0.00 in/hr0.0 mm/hr 0.00 in0.0 mm
06:32 AM 27.7°F-2.4°C 22.8°F-5.1°C 82% 2.9 mph S4.7 kmh S 4.0 mph6.4 kmh 30.23 in1023.7 mb 0.00 in0.0 mm 0.00 in/hr0.0 mm/hr 0.00 in0.0 mm
06:31 AM 27.7°F-2.4°C 22.8°F-5.1°C 82% 2.9 mph SSW4.7 kmh SSW 2.9 mph4.7 kmh 30.23 in1023.7 mb 0.00 in0.0 mm 0.00 in/hr0.0 mm/hr 0.00 in0.0 mm
06:30 AM 27.7°F-2.4°C 22.8°F-5.1°C 82% 2.9 mph S4.7 kmh S 2.9 mph4.7 kmh 30.24 in1024.0 mb 0.00 in0.0 mm 0.00 in/hr0.0 mm/hr 0.00 in0.0 mm
06:29 AM 27.7°F-2.4°C 22.8°F-5.1°C 82% 2.9 mph SE4.7 kmh SE 4.0 mph6.4 kmh 30.24 in1024.0 mb 0.00 in0.0 mm 0.00 in/hr0.0 mm/hr 0.00 in0.0 mm
06:28 AM 27.7°F-2.4°C 22.8°F-5.1°C 82% 2.9 mph SSE4.7 kmh SSE 4.9 mph7.9 kmh 30.24 in1024.0 mb 0.00 in0.0 mm 0.00 in/hr0.0 mm/hr 0.00 in0.0 mm
06:27 AM 27.7°F-2.4°C 22.6°F-5.2°C 81% 2.9 mph SSW4.7 kmh SSW 6.0 mph9.7 kmh 30.24 in1024.0 mb 0.00 in0.0 mm 0.00 in/hr0.0 mm/hr 0.00 in0.0 mm
06:26 AM 27.7°F-2.4°C 22.8°F-5.1°C 82% 2.9 mph SSE4.7 kmh SSE 6.0 mph9.7 kmh 30.24 in1024.0 mb 0.00 in0.0 mm 0.00 in/hr0.0 mm/hr 0.00 in0.0 mm
06:25 AM 27.7°F-2.4°C 22.8°F-5.1°C 82% 2.9 mph SSE4.7 kmh SSE 4.9 mph7.9 kmh 30.24 in1024.0 mb 0.00 in0.0 mm 0.00 in/hr0.0 mm/hr 0.00 in0.0 mm
06:24 AM 27.7°F-2.4°C 22.8°F-5.1°C 82% 2.9 mph SE4.7 kmh SE 4.9 mph7.9 kmh 30.24 in1024.0 mb 0.00 in0.0 mm 0.00 in/hr0.0 mm/hr 0.00 in0.0 mm
06:23 AM 27.7°F-2.4°C 22.6°F-5.2°C 81% 2.9 mph S4.7 kmh S 4.9 mph7.9 kmh 30.24 in1024.0 mb 0.00 in0.0 mm 0.00 in/hr0.0 mm/hr 0.00 in0.0 mm
06:22 AM 27.7°F-2.4°C 22.6°F-5.2°C 81% 2.9 mph SSW4.7 kmh SSW 4.0 mph6.4 kmh 30.24 in1024.0 mb 0.00 in0.0 mm 0.00 in/hr0.0 mm/hr 0.00 in0.0 mm
06:21 AM 27.7°F-2.4°C 22.6°F-5.2°C 81% 2.9 mph SSW4.7 kmh SSW 4.9 mph7.9 kmh 30.24 in1024.0 mb 0.00 in0.0 mm 0.00 in/hr0.0 mm/hr 0.00 in0.0 mm
06:20 AM 27.9°F-2.3°C 22.8°F-5.1°C 81% 2.0 mph S3.2 kmh S 4.9 mph7.9 kmh 30.24 in1024.0 mb 0.00 in0.0 mm 0.00 in/hr0.0 mm/hr 0.00 in0.0 mm
06:19 AM 27.7°F-2.4°C 22.6°F-5.2°C 81% 2.0 mph S3.2 kmh S 4.0 mph6.4 kmh 30.24 in1024.0 mb 0.00 in0.0 mm 0.00 in/hr0.0 mm/hr 0.00 in0.0 mm
06:18 AM 27.9°F-2.3°C 22.8°F-5.1°C 81% 2.0 mph S3.2 kmh S 4.0 mph6.4 kmh 30.24 in1024.0 mb 0.00 in0.0 mm 0.00 in/hr0.0 mm/hr 0.00 in0.0 mm
06:17 AM 27.9°F-2.3°C 22.8°F-5.1°C 81% 2.0 mph SSE3.2 kmh SSE 4.0 mph6.4 kmh 30.24 in1024.0 mb 0.00 in0.0 mm 0.00 in/hr0.0 mm/hr 0.00 in0.0 mm
06:16 AM 27.9°F-2.3°C 22.8°F-5.1°C 81% 2.0 mph SE3.2 kmh SE 4.0 mph6.4 kmh 30.24 in1024.0 mb 0.00 in0.0 mm 0.00 in/hr0.0 mm/hr 0.00 in0.0 mm
06:15 AM 27.9°F-2.3°C 22.8°F-5.1°C 81% 2.0 mph SSW3.2 kmh SSW 4.0 mph6.4 kmh 30.24 in1024.0 mb 0.00 in0.0 mm 0.00 in/hr0.0 mm/hr 0.00 in0.0 mm
06:14 AM 27.9°F-2.3°C 22.8°F-5.1°C 81% 2.0 mph S3.2 kmh S 4.0 mph6.4 kmh 30.24 in1024.0 mb 0.00 in0.0 mm 0.00 in/hr0.0 mm/hr 0.00 in0.0 mm
06:13 AM 27.9°F-2.3°C 22.8°F-5.1°C 81% 2.0 mph SSE3.2 kmh SSE 4.0 mph6.4 kmh 30.24 in1024.0 mb 0.00 in0.0 mm 0.00 in/hr0.0 mm/hr 0.00 in0.0 mm
06:12 AM 27.9°F-2.3°C 22.8°F-5.1°C 81% 0.9 mph S1.4 kmh S 4.0 mph6.4 kmh 30.24 in1024.0 mb 0.00 in0.0 mm 0.00 in/hr0.0 mm/hr 0.00 in0.0 mm
06:11 AM 27.9°F-2.3°C 22.8°F-5.1°C 81% 0.9 mph S1.4 kmh S 2.0 mph3.2 kmh 30.24 in1024.0 mb 0.00 in0.0 mm 0.00 in/hr0.0 mm/hr 0.00 in0.0 mm
06:10 AM 27.9°F-2.3°C 22.8°F-5.1°C 81% 0.9 mph S1.4 kmh S 2.0 mph3.2 kmh 30.24 in1024.0 mb 0.00 in0.0 mm 0.00 in/hr0.0 mm/hr 0.00 in0.0 mm
06:09 AM 27.9°F-2.3°C 22.8°F-5.1°C 81% 0.9 mph SE1.4 kmh SE 2.0 mph3.2 kmh 30.24 in1024.0 mb 0.00 in0.0 mm 0.00 in/hr0.0 mm/hr 0.00 in0.0 mm
06:08 AM 27.7°F-2.4°C 22.6°F-5.2°C 81% 2.0 mph SE3.2 kmh SE 2.0 mph3.2 kmh 30.24 in1024.0 mb 0.00 in0.0 mm 0.00 in/hr0.0 mm/hr 0.00 in0.0 mm
06:07 AM 27.7°F-2.4°C 22.6°F-5.2°C 81% 2.0 mph SE3.2 kmh SE 2.9 mph4.7 kmh 30.24 in1024.0 mb 0.00 in0.0 mm 0.00 in/hr0.0 mm/hr 0.00 in0.0 mm
06:06 AM 27.7°F-2.4°C 22.6°F-5.2°C 81% 2.0 mph ESE3.2 kmh ESE 2.0 mph3.2 kmh 30.24 in1024.0 mb 0.00 in0.0 mm 0.00 in/hr0.0 mm/hr 0.00 in0.0 mm
06:05 AM 27.7°F-2.4°C 22.6°F-5.2°C 81% 2.0 mph SSE3.2 kmh SSE 2.9 mph4.7 kmh 30.24 in1024.0 mb 0.00 in0.0 mm 0.00 in/hr0.0 mm/hr 0.00 in0.0 mm
06:04 AM 27.7°F-2.4°C 22.6°F-5.2°C 81% 2.0 mph SSW3.2 kmh SSW 2.0 mph3.2 kmh 30.24 in1024.0 mb 0.00 in0.0 mm 0.00 in/hr0.0 mm/hr 0.00 in0.0 mm
06:03 AM 27.7°F-2.4°C 22.6°F-5.2°C 81% 2.0 mph S3.2 kmh S 0.9 mph1.4 kmh 30.24 in1024.0 mb 0.00 in0.0 mm 0.00 in/hr0.0 mm/hr 0.00 in0.0 mm
06:02 AM 27.7°F-2.4°C 22.6°F-5.2°C 81% 2.0 mph SE3.2 kmh SE 2.9 mph4.7 kmh 30.24 in1024.0 mb 0.00 in0.0 mm 0.00 in/hr0.0 mm/hr 0.00 in0.0 mm
06:01 AM 27.7°F-2.4°C 22.6°F-5.2°C 81% 2.0 mph SE3.2 kmh SE 2.9 mph4.7 kmh 30.24 in1024.0 mb 0.00 in0.0 mm 0.00 in/hr0.0 mm/hr 0.00 in0.0 mm
06:00 AM 27.9°F-2.3°C 22.8°F-5.1°C 81% 2.0 mph S3.2 kmh S 2.0 mph3.2 kmh 30.23 in1023.7 mb 0.00 in0.0 mm 0.00 in/hr0.0 mm/hr 0.00 in0.0 mm
05:59 AM 27.7°F-2.4°C 22.6°F-5.2°C 81% 2.0 mph S3.2 kmh S 2.0 mph3.2 kmh 30.23 in1023.7 mb 0.00 in0.0 mm 0.00 in/hr0.0 mm/hr 0.00 in0.0 mm
05:58 AM 27.7°F-2.4°C 22.8°F-5.1°C 82% 2.0 mph S3.2 kmh S 4.0 mph6.4 kmh 30.23 in1023.7 mb 0.00 in0.0 mm 0.00 in/hr0.0 mm/hr 0.00 in0.0 mm
05:57 AM 27.7°F-2.4°C 22.8°F-5.1°C 82% 2.0 mph S3.2 kmh S 4.0 mph6.4 kmh 30.23 in1023.7 mb 0.00 in0.0 mm 0.00 in/hr0.0 mm/hr 0.00 in0.0 mm
05:56 AM 27.7°F-2.4°C 22.8°F-5.1°C 82% 2.0 mph S3.2 kmh S 2.9 mph4.7 kmh 30.23 in1023.7 mb 0.00 in0.0 mm 0.00 in/hr0.0 mm/hr 0.00 in0.0 mm
05:55 AM 27.7°F-2.4°C 22.8°F-5.1°C 82% 2.0 mph S3.2 kmh S 2.9 mph4.7 kmh 30.23 in1023.7 mb 0.00 in0.0 mm 0.00 in/hr0.0 mm/hr 0.00 in0.0 mm
05:54 AM 27.7°F-2.4°C 22.8°F-5.1°C 82% 2.0 mph SE3.2 kmh SE 4.0 mph6.4 kmh 30.23 in1023.7 mb 0.00 in0.0 mm 0.00 in/hr0.0 mm/hr 0.00 in0.0 mm
05:53 AM 27.7°F-2.4°C 22.8°F-5.1°C 82% 2.0 mph SSE3.2 kmh SSE 2.0 mph3.2 kmh 30.23 in1023.7 mb 0.00 in0.0 mm 0.00 in/hr0.0 mm/hr 0.00 in0.0 mm
05:52 AM 27.7°F-2.4°C 22.8°F-5.1°C 82% 2.0 mph SSE3.2 kmh SSE 2.9 mph4.7 kmh 30.23 in1023.7 mb 0.00 in0.0 mm 0.00 in/hr0.0 mm/hr 0.00 in0.0 mm
05:51 AM 27.7°F-2.4°C 22.8°F-5.1°C 82% 2.0 mph SE3.2 kmh SE 2.0 mph3.2 kmh 30.23 in1023.7 mb 0.00 in0.0 mm 0.00 in/hr0.0 mm/hr 0.00 in0.0 mm
05:50 AM 27.7°F-2.4°C 22.8°F-5.1°C 82% 2.0 mph SSW3.2 kmh SSW 2.9 mph4.7 kmh 30.23 in1023.7 mb 0.00 in0.0 mm 0.00 in/hr0.0 mm/hr 0.00 in0.0 mm
05:49 AM 27.7°F-2.4°C 22.8°F-5.1°C 82% 2.0 mph SSE3.2 kmh SSE 2.9 mph4.7 kmh 30.23 in1023.7 mb 0.00 in0.0 mm 0.00 in/hr0.0 mm/hr 0.00 in0.0 mm
05:48 AM 27.7°F-2.4°C 22.8°F-5.1°C 82% 2.0 mph S3.2 kmh S 4.0 mph6.4 kmh 30.23 in1023.7 mb 0.00 in0.0 mm 0.00 in/hr0.0 mm/hr 0.00 in0.0 mm
05:47 AM 27.7°F-2.4°C 22.8°F-5.1°C 82% 2.0 mph S3.2 kmh S 4.0 mph6.4 kmh 30.23 in1023.7 mb 0.00 in0.0 mm 0.00 in/hr0.0 mm/hr 0.00 in0.0 mm
05:46 AM 27.7°F-2.4°C 22.8°F-5.1°C 82% 2.0 mph SSE3.2 kmh SSE 4.0 mph6.4 kmh 30.23 in1023.7 mb 0.00 in0.0 mm 0.00 in/hr0.0 mm/hr 0.00 in0.0 mm
05:45 AM 27.7°F-2.4°C 22.8°F-5.1°C 82% 2.0 mph S3.2 kmh S 4.9 mph7.9 kmh 30.23 in1023.7 mb 0.00 in0.0 mm 0.00 in/hr0.0 mm/hr 0.00 in0.0 mm
05:44 AM 27.7°F-2.4°C 22.8°F-5.1°C 82% 2.0 mph SSW3.2 kmh SSW 4.9 mph7.9 kmh 30.23 in1023.7 mb 0.00 in0.0 mm 0.00 in/hr0.0 mm/hr 0.00 in0.0 mm
05:43 AM 27.7°F-2.4°C 22.8°F-5.1°C 82% 0.9 mph SW1.4 kmh SW 4.0 mph6.4 kmh 30.23 in1023.7 mb 0.00 in0.0 mm 0.00 in/hr0.0 mm/hr 0.00 in0.0 mm
05:42 AM 27.9°F-2.3°C 23.0°F-5.0°C 82% 0.9 mph SE1.4 kmh SE 2.9 mph4.7 kmh 30.23 in1023.7 mb 0.00 in0.0 mm 0.00 in/hr0.0 mm/hr 0.00 in0.0 mm
05:41 AM 27.9°F-2.3°C 23.0°F-5.0°C 82% 0.9 mph S1.4 kmh S 2.9 mph4.7 kmh 30.23 in1023.7 mb 0.00 in0.0 mm 0.00 in/hr0.0 mm/hr 0.00 in0.0 mm
05:40 AM 27.9°F-2.3°C 23.0°F-5.0°C 82% 0.9 mph SSE1.4 kmh SSE 2.0 mph3.2 kmh 30.23 in1023.7 mb 0.00 in0.0 mm 0.00 in/hr0.0 mm/hr 0.00 in0.0 mm
05:39 AM 27.9°F-2.3°C 23.0°F-5.0°C 82% 2.0 mph SSW3.2 kmh SSW 2.0 mph3.2 kmh 30.23 in1023.7 mb 0.00 in0.0 mm 0.00 in/hr0.0 mm/hr 0.00 in0.0 mm
05:38 AM 27.9°F-2.3°C 23.0°F-5.0°C 82% 2.0 mph S3.2 kmh S 4.0 mph6.4 kmh 30.23 in1023.7 mb 0.00 in0.0 mm 0.00 in/hr0.0 mm/hr 0.00 in0.0 mm
05:37 AM 27.9°F-2.3°C 22.8°F-5.1°C 81% 2.0 mph S3.2 kmh S 4.0 mph6.4 kmh 30.23 in1023.7 mb 0.00 in0.0 mm 0.00 in/hr0.0 mm/hr 0.00 in0.0 mm
05:36 AM 27.9°F-2.3°C 22.8°F-5.1°C 81% 2.0 mph SSE3.2 kmh SSE 2.0 mph3.2 kmh 30.23 in1023.7 mb 0.00 in0.0 mm 0.00 in/hr0.0 mm/hr 0.00 in0.0 mm
05:35 AM 27.9°F-2.3°C 22.8°F-5.1°C 81% 2.0 mph SSE3.2 kmh SSE 2.9 mph4.7 kmh 30.23 in1023.7 mb 0.00 in0.0 mm 0.00 in/hr0.0 mm/hr 0.00 in0.0 mm
05:34 AM 27.9°F-2.3°C 22.8°F-5.1°C 81% 2.0 mph SSW3.2 kmh SSW 4.0 mph6.4 kmh 30.23 in1023.7 mb 0.00 in0.0 mm 0.00 in/hr0.0 mm/hr 0.00 in0.0 mm
05:33 AM 27.9°F-2.3°C 22.8°F-5.1°C 81% 2.0 mph SSW3.2 kmh SSW 2.0 mph3.2 kmh 30.23 in1023.7 mb 0.00 in0.0 mm 0.00 in/hr0.0 mm/hr 0.00 in0.0 mm
05:32 AM 27.9°F-2.3°C 22.8°F-5.1°C 81% 2.0 mph SSE3.2 kmh SSE 2.0 mph3.2 kmh 30.23 in1023.7 mb 0.00 in0.0 mm 0.00 in/hr0.0 mm/hr 0.00 in0.0 mm
05:31 AM 27.9°F-2.3°C 22.8°F-5.1°C 81% 2.0 mph SE3.2 kmh SE 4.0 mph6.4 kmh 30.23 in1023.7 mb 0.00 in0.0 mm 0.00 in/hr0.0 mm/hr 0.00 in0.0 mm
05:30 AM 27.9°F-2.3°C 22.8°F-5.1°C 81% 2.0 mph S3.2 kmh S 4.9 mph7.9 kmh 30.23 in1023.7 mb 0.00 in0.0 mm 0.00 in/hr0.0 mm/hr 0.00 in0.0 mm
05:29 AM 27.9°F-2.3°C 22.8°F-5.1°C 81% 2.0 mph SSE3.2 kmh SSE 2.9 mph4.7 kmh 30.23 in1023.7 mb 0.00 in0.0 mm 0.00 in/hr0.0 mm/hr 0.00 in0.0 mm
05:28 AM 27.9°F-2.3°C 22.8°F-5.1°C 81% 2.0 mph SE3.2 kmh SE 2.9 mph4.7 kmh 30.23 in1023.7 mb 0.00 in0.0 mm 0.00 in/hr0.0 mm/hr 0.00 in0.0 mm
05:27 AM 27.9°F-2.3°C 22.8°F-5.1°C 81% 2.0 mph SSE3.2 kmh SSE 2.0 mph3.2 kmh 30.23 in1023.7 mb 0.00 in0.0 mm 0.00 in/hr0.0 mm/hr 0.00 in0.0 mm
05:26 AM 27.7°F-2.4°C 22.6°F-5.2°C 81% 2.0 mph SE3.2 kmh SE 2.9 mph4.7 kmh 30.23 in1023.7 mb 0.00 in0.0 mm 0.00 in/hr0.0 mm/hr 0.00 in0.0 mm
05:25 AM 27.9°F-2.3°C 23.0°F-5.0°C 82% 2.0 mph SSE3.2 kmh SSE 5.0 mph8.0 kmh 30.23 in1023.7 mb 0.00 in0.0 mm 0.00 in/hr0.0 mm/hr 0.00 in0.0 mm
05:24 AM 27.7°F-2.4°C 22.8°F-5.1°C 82% 2.0 mph SSW3.2 kmh SSW 2.0 mph3.2 kmh 30.23 in1023.7 mb 0.00 in0.0 mm 0.00 in/hr0.0 mm/hr 0.00 in0.0 mm
05:23 AM 27.9°F-2.3°C 23.0°F-5.0°C 82% 2.0 mph SE3.2 kmh SE 2.0 mph3.2 kmh 30.23 in1023.7 mb 0.00 in0.0 mm 0.00 in/hr0.0 mm/hr 0.00 in0.0 mm
05:22 AM 27.9°F-2.3°C 23.0°F-5.0°C 82% 2.0 mph ESE3.2 kmh ESE 2.0 mph3.2 kmh 30.23 in1023.7 mb 0.00 in0.0 mm 0.00 in/hr0.0 mm/hr 0.00 in0.0 mm
05:21 AM 27.9°F-2.3°C 23.0°F-5.0°C 82% 2.9 mph S4.7 kmh S 2.0 mph3.2 kmh 30.23 in1023.7 mb 0.00 in0.0 mm 0.00 in/hr0.0 mm/hr 0.00 in0.0 mm
05:20 AM 27.9°F-2.3°C 23.0°F-5.0°C 82% 2.9 mph S4.7 kmh S 2.9 mph4.7 kmh 30.23 in1023.7 mb 0.00 in0.0 mm 0.00 in/hr0.0 mm/hr 0.00 in0.0 mm
05:19 AM 27.9°F-2.3°C 23.0°F-5.0°C 82% 2.9 mph SSE4.7 kmh SSE 4.0 mph6.4 kmh 30.23 in1023.7 mb 0.00 in0.0 mm 0.00 in/hr0.0 mm/hr 0.00 in0.0 mm
05:18 AM 27.9°F-2.3°C 23.0°F-5.0°C 82% 2.9 mph S4.7 kmh S 2.9 mph4.7 kmh 30.23 in1023.7 mb 0.00 in0.0 mm 0.00 in/hr0.0 mm/hr 0.00 in0.0 mm
05:17 AM 27.9°F-2.3°C 23.0°F-5.0°C 82% 2.9 mph SSW4.7 kmh SSW 2.9 mph4.7 kmh 30.23 in1023.7 mb 0.00 in0.0 mm 0.00 in/hr0.0 mm/hr 0.00 in0.0 mm
05:16 AM 27.9°F-2.3°C 23.0°F-5.0°C 82% 2.9 mph SSW4.7 kmh SSW 2.9 mph4.7 kmh 30.23 in1023.7 mb 0.00 in0.0 mm 0.00 in/hr0.0 mm/hr 0.00 in0.0 mm
05:15 AM 27.9°F-2.3°C 23.0°F-5.0°C 82% 2.9 mph S4.7 kmh S 4.0 mph6.4 kmh 30.23 in1023.7 mb 0.00 in0.0 mm 0.00 in/hr0.0 mm/hr 0.00 in0.0 mm
05:14 AM 27.9°F-2.3°C 23.0°F-5.0°C 82% 2.9 mph SSW4.7 kmh SSW 4.0 mph6.4 kmh 30.23 in1023.7 mb 0.00 in0.0 mm 0.00 in/hr0.0 mm/hr 0.00 in0.0 mm
05:13 AM 27.9°F-2.3°C 22.8°F-5.1°C 81% 2.9 mph SSW4.7 kmh SSW 6.0 mph9.7 kmh 30.23 in1023.7 mb 0.00 in0.0 mm 0.00 in/hr0.0 mm/hr 0.00 in0.0 mm
05:12 AM 27.9°F-2.3°C 22.8°F-5.1°C 81% 2.9 mph S4.7 kmh S 4.9 mph7.9 kmh 30.23 in1023.7 mb 0.00 in0.0 mm 0.00 in/hr0.0 mm/hr 0.00 in0.0 mm
05:11 AM 27.9°F-2.3°C 22.8°F-5.1°C 81% 2.9 mph SSE4.7 kmh SSE 4.9 mph7.9 kmh 30.23 in1023.7 mb 0.00 in0.0 mm 0.00 in/hr0.0 mm/hr 0.00 in0.0 mm
05:10 AM 27.9°F-2.3°C 22.8°F-5.1°C 81% 2.0 mph S3.2 kmh S 4.0 mph6.4 kmh 30.23 in1023.7 mb 0.00 in0.0 mm 0.00 in/hr0.0 mm/hr 0.00 in0.0 mm
05:09 AM 27.9°F-2.3°C 23.0°F-5.0°C 82% 2.0 mph SSW3.2 kmh SSW 4.0 mph6.4 kmh 30.23 in1023.7 mb 0.00 in0.0 mm 0.00 in/hr0.0 mm/hr 0.00 in0.0 mm
05:08 AM 27.9°F-2.3°C 22.8°F-5.1°C 81% 2.0 mph S3.2 kmh S 4.0 mph6.4 kmh 30.23 in1023.7 mb 0.00 in0.0 mm 0.00 in/hr0.0 mm/hr 0.00 in0.0 mm
05:07 AM 27.9°F-2.3°C 22.8°F-5.1°C 81% 2.0 mph SSE3.2 kmh SSE 4.0 mph6.4 kmh 30.23 in1023.7 mb 0.00 in0.0 mm 0.00 in/hr0.0 mm/hr 0.00 in0.0 mm
05:06 AM 27.9°F-2.3°C 22.8°F-5.1°C 81% 2.0 mph S3.2 kmh S 4.0 mph6.4 kmh 30.23 in1023.7 mb 0.00 in0.0 mm 0.00 in/hr0.0 mm/hr 0.00 in0.0 mm
05:05 AM 27.9°F-2.3°C 22.8°F-5.1°C 81% 2.0 mph S3.2 kmh S 4.9 mph7.9 kmh 30.23 in1023.7 mb 0.00 in0.0 mm 0.00 in/hr0.0 mm/hr 0.00 in0.0 mm
05:04 AM 27.9°F-2.3°C 22.8°F-5.1°C 81% 2.0 mph SSW3.2 kmh SSW 2.9 mph4.7 kmh 30.23 in1023.7 mb 0.00 in0.0 mm 0.00 in/hr0.0 mm/hr 0.00 in0.0 mm
05:03 AM 27.9°F-2.3°C 22.8°F-5.1°C 81% 2.0 mph S3.2 kmh S 2.0 mph3.2 kmh 30.23 in1023.7 mb 0.00 in0.0 mm 0.00 in/hr0.0 mm/hr 0.00 in0.0 mm
05:02 AM 28.0°F-2.2°C 23.0°F-5.0°C 81% 2.0 mph SSE3.2 kmh SSE 2.0 mph3.2 kmh 30.23 in1023.7 mb 0.00 in0.0 mm 0.00 in/hr0.0 mm/hr 0.00 in0.0 mm
05:01 AM 27.9°F-2.3°C 22.8°F-5.1°C 81% 2.0 mph SSE3.2 kmh SSE 2.0 mph3.2 kmh 30.23 in1023.7 mb 0.00 in0.0 mm 0.00 in/hr0.0 mm/hr 0.00 in0.0 mm
05:00 AM 27.9°F-2.3°C 22.8°F-5.1°C 81% 2.0 mph SSE3.2 kmh SSE 2.0 mph3.2 kmh 30.22 in1023.4 mb 0.00 in0.0 mm 0.00 in/hr0.0 mm/hr 0.00 in0.0 mm
04:59 AM 27.9°F-2.3°C 22.8°F-5.1°C 81% 2.0 mph SSW3.2 kmh SSW 2.0 mph3.2 kmh 30.22 in1023.4 mb 0.00 in0.0 mm 0.00 in/hr0.0 mm/hr 0.00 in0.0 mm
04:58 AM 28.0°F-2.2°C 23.0°F-5.0°C 81% 2.0 mph S3.2 kmh S 2.9 mph4.7 kmh 30.22 in1023.4 mb 0.00 in0.0 mm 0.00 in/hr0.0 mm/hr 0.00 in0.0 mm
04:57 AM 28.0°F-2.2°C 23.0°F-5.0°C 81% 0.9 mph SE1.4 kmh SE 2.9 mph4.7 kmh 30.22 in1023.4 mb 0.00 in0.0 mm 0.00 in/hr0.0 mm/hr 0.00 in0.0 mm
04:55 AM 28.0°F-2.2°C 22.6°F-5.2°C 80% 0.9 mph S1.4 kmh S 4.0 mph6.4 kmh 30.22 in1023.4 mb 0.00 in0.0 mm 0.00 in/hr0.0 mm/hr 0.00 in0.0 mm
04:54 AM 28.0°F-2.2°C 22.6°F-5.2°C 80% 0.9 mph SSW1.4 kmh SSW 2.0 mph3.2 kmh 30.22 in1023.4 mb 0.00 in0.0 mm 0.00 in/hr0.0 mm/hr 0.00 in0.0 mm
04:53 AM 28.0°F-2.2°C 22.6°F-5.2°C 80% 0.9 mph S1.4 kmh S 2.0 mph3.2 kmh 30.22 in1023.4 mb 0.00 in0.0 mm 0.00 in/hr0.0 mm/hr 0.00 in0.0 mm
04:52 AM 28.0°F-2.2°C 22.6°F-5.2°C 80% 0.9 mph SSE1.4 kmh SSE 2.9 mph4.7 kmh 30.22 in1023.4 mb 0.00 in0.0 mm 0.00 in/hr0.0 mm/hr 0.00 in0.0 mm
04:51 AM 28.0°F-2.2°C 22.6°F-5.2°C 80% 0.9 mph S1.4 kmh S 2.9 mph4.7 kmh 30.22 in1023.4 mb 0.00 in0.0 mm 0.00 in/hr0.0 mm/hr 0.00 in0.0 mm
04:50 AM 28.0°F-2.2°C 22.6°F-5.2°C 80% 0.9 mph S1.4 kmh S 2.0 mph3.2 kmh 30.22 in1023.4 mb 0.00 in0.0 mm 0.00 in/hr0.0 mm/hr 0.00 in0.0 mm
04:49 AM 28.0°F-2.2°C 22.6°F-5.2°C 80% 0.9 mph S1.4 kmh S 2.0 mph3.2 kmh 30.22 in1023.4 mb 0.00 in0.0 mm 0.00 in/hr0.0 mm/hr 0.00 in0.0 mm
04:48 AM 28.0°F-2.2°C 22.6°F-5.2°C 80% 0.9 mph S1.4 kmh S 2.0 mph3.2 kmh 30.22 in1023.4 mb 0.00 in0.0 mm 0.00 in/hr0.0 mm/hr 0.00 in0.0 mm
04:47 AM 28.0°F-2.2°C 22.6°F-5.2°C 80% 0.9 mph S1.4 kmh S 2.0 mph3.2 kmh 30.22 in1023.4 mb 0.00 in0.0 mm 0.00 in/hr0.0 mm/hr 0.00 in0.0 mm
04:46 AM 28.0°F-2.2°C 22.6°F-5.2°C 80% 0.9 mph SE1.4 kmh SE 0.9 mph1.4 kmh 30.22 in1023.4 mb 0.00 in0.0 mm 0.00 in/hr0.0 mm/hr 0.00 in0.0 mm
04:45 AM 28.0°F-2.2°C 22.6°F-5.2°C 80% 0.9 mph S1.4 kmh S 2.0 mph3.2 kmh 30.23 in1023.7 mb 0.00 in0.0 mm 0.00 in/hr0.0 mm/hr 0.00 in0.0 mm
04:44 AM 28.0°F-2.2°C 22.6°F-5.2°C 80% 0.9 mph SSE1.4 kmh SSE 2.9 mph4.7 kmh 30.23 in1023.7 mb 0.00 in0.0 mm 0.00 in/hr0.0 mm/hr 0.00 in0.0 mm
04:43 AM 28.0°F-2.2°C 22.6°F-5.2°C 80% 0.9 mph S1.4 kmh S 2.9 mph4.7 kmh 30.23 in1023.7 mb 0.00 in0.0 mm 0.00 in/hr0.0 mm/hr 0.00 in0.0 mm
04:42 AM 28.0°F-2.2°C 22.6°F-5.2°C 80% Calm Calm 2.0 mph3.2 kmh 30.23 in1023.7 mb 0.00 in0.0 mm 0.00 in/hr0.0 mm/hr 0.00 in0.0 mm
04:41 AM 28.0°F-2.2°C 22.6°F-5.2°C 80% Calm Calm 2.0 mph3.2 kmh 30.23 in1023.7 mb 0.00 in0.0 mm 0.00 in/hr0.0 mm/hr 0.00 in0.0 mm
04:40 AM 28.2°F-2.1°C 22.8°F-5.1°C 80% Calm Calm 0.9 mph1.4 kmh 30.23 in1023.7 mb 0.00 in0.0 mm 0.00 in/hr0.0 mm/hr 0.00 in0.0 mm
04:39 AM 28.2°F-2.1°C 22.8°F-5.1°C 80% Calm Calm 0.9 mph1.4 kmh 30.23 in1023.7 mb 0.00 in0.0 mm 0.00 in/hr0.0 mm/hr 0.00 in0.0 mm
04:38 AM 28.2°F-2.1°C 22.8°F-5.1°C 80% Calm Calm -- 30.23 in1023.7 mb 0.00 in0.0 mm 0.00 in/hr0.0 mm/hr 0.00 in0.0 mm
04:37 AM 28.2°F-2.1°C 22.8°F-5.1°C 80% Calm Calm 0.9 mph1.4 kmh 30.23 in1023.7 mb 0.00 in0.0 mm 0.00 in/hr0.0 mm/hr 0.00 in0.0 mm
04:36 AM 28.2°F-2.1°C 22.8°F-5.1°C 80% Calm Calm -- 30.23 in1023.7 mb 0.00 in0.0 mm 0.00 in/hr0.0 mm/hr 0.00 in0.0 mm
04:35 AM 28.2°F-2.1°C 22.8°F-5.1°C 80% Calm Calm -- 30.23 in1023.7 mb 0.00 in0.0 mm 0.00 in/hr0.0 mm/hr 0.00 in0.0 mm
04:34 AM 28.2°F-2.1°C 22.8°F-5.1°C 80% Calm Calm 0.9 mph1.4 kmh 30.23 in1023.7 mb 0.00 in0.0 mm 0.00 in/hr0.0 mm/hr 0.00 in0.0 mm
04:33 AM 28.2°F-2.1°C 22.8°F-5.1°C 80% Calm Calm 0.9 mph1.4 kmh 30.23 in1023.7 mb 0.00 in0.0 mm 0.00 in/hr0.0 mm/hr 0.00 in0.0 mm
04:32 AM 28.2°F-2.1°C 22.8°F-5.1°C 80% 0.9 mph SE1.4 kmh SE -- 30.23 in1023.7 mb 0.00 in0.0 mm 0.00 in/hr0.0 mm/hr 0.00 in0.0 mm
04:31 AM 28.2°F-2.1°C 22.8°F-5.1°C 80% 0.9 mph ESE1.4 kmh ESE -- 30.23 in1023.7 mb 0.00 in0.0 mm 0.00 in/hr0.0 mm/hr 0.00 in0.0 mm
04:30 AM 28.2°F-2.1°C 22.8°F-5.1°C 80% 0.9 mph ESE1.4 kmh ESE 0.9 mph1.4 kmh 30.22 in1023.4 mb 0.00 in0.0 mm 0.00 in/hr0.0 mm/hr 0.00 in0.0 mm
04:29 AM 28.2°F-2.1°C 22.8°F-5.1°C 80% 0.9 mph ESE1.4 kmh ESE 2.0 mph3.2 kmh 30.22 in1023.4 mb 0.00 in0.0 mm 0.00 in/hr0.0 mm/hr 0.00 in0.0 mm
04:28 AM 28.2°F-2.1°C 22.8°F-5.1°C 80% 0.9 mph E1.4 kmh E 0.9 mph1.4 kmh 30.22 in1023.4 mb 0.00 in0.0 mm 0.00 in/hr0.0 mm/hr 0.00 in0.0 mm
04:27 AM 28.2°F-2.1°C 22.8°F-5.1°C 80% 0.9 mph SSE1.4 kmh SSE 0.9 mph1.4 kmh 30.22 in1023.4 mb 0.00 in0.0 mm 0.00 in/hr0.0 mm/hr 0.00 in0.0 mm
04:26 AM 28.2°F-2.1°C 22.8°F-5.1°C 80% 0.9 mph S1.4 kmh S 0.9 mph1.4 kmh 30.22 in1023.4 mb 0.00 in0.0 mm 0.00 in/hr0.0 mm/hr 0.00 in0.0 mm
04:25 AM 28.2°F-2.1°C 22.8°F-5.1°C 80% 0.9 mph SE1.4 kmh SE 2.0 mph3.2 kmh 30.22 in1023.4 mb 0.00 in0.0 mm 0.00 in/hr0.0 mm/hr 0.00 in0.0 mm
04:24 AM 28.2°F-2.1°C 22.8°F-5.1°C 80% Calm Calm 2.0 mph3.2 kmh 30.22 in1023.4 mb 0.00 in0.0 mm 0.00 in/hr0.0 mm/hr 0.00 in0.0 mm
04:23 AM 28.2°F-2.1°C 22.8°F-5.1°C 80% Calm Calm 2.0 mph3.2 kmh 30.22 in1023.4 mb 0.00 in0.0 mm 0.00 in/hr0.0 mm/hr 0.00 in0.0 mm
04:22 AM 28.2°F-2.1°C 22.8°F-5.1°C 80% Calm Calm 2.0 mph3.2 kmh 30.22 in1023.4 mb 0.00 in0.0 mm 0.00 in/hr0.0 mm/hr 0.00 in0.0 mm
04:21 AM 28.2°F-2.1°C 22.8°F-5.1°C 80% Calm Calm 0.9 mph1.4 kmh 30.22 in1023.4 mb 0.00 in0.0 mm 0.00 in/hr0.0 mm/hr 0.00 in0.0 mm
04:20 AM 28.2°F-2.1°C 22.8°F-5.1°C 80% Calm Calm 0.9 mph1.4 kmh 30.22 in1023.4 mb 0.00 in0.0 mm 0.00 in/hr0.0 mm/hr 0.00 in0.0 mm
04:19 AM 28.2°F-2.1°C 22.8°F-5.1°C 80% Calm Calm 0.9 mph1.4 kmh 30.22 in1023.4 mb 0.00 in0.0 mm 0.00 in/hr0.0 mm/hr 0.00 in0.0 mm
04:18 AM 28.2°F-2.1°C 22.8°F-5.1°C 80% Calm Calm 0.9 mph1.4 kmh 30.22 in1023.4 mb 0.00 in0.0 mm 0.00 in/hr0.0 mm/hr 0.00 in0.0 mm
04:17 AM 28.2°F-2.1°C 22.8°F-5.1°C 80% Calm Calm 2.0 mph3.2 kmh 30.22 in1023.4 mb 0.00 in0.0 mm 0.00 in/hr0.0 mm/hr 0.00 in0.0 mm
04:16 AM 28.2°F-2.1°C 22.8°F-5.1°C 80% Calm Calm 0.9 mph1.4 kmh 30.22 in1023.4 mb 0.00 in0.0 mm 0.00 in/hr0.0 mm/hr 0.00 in0.0 mm
04:15 AM 28.2°F-2.1°C 22.8°F-5.1°C 80% Calm Calm 0.9 mph1.4 kmh 30.22 in1023.4 mb 0.00 in0.0 mm 0.00 in/hr0.0 mm/hr 0.00 in0.0 mm
04:14 AM 28.2°F-2.1°C 22.8°F-5.1°C 80% 0.9 mph ESE1.4 kmh ESE 0.9 mph1.4 kmh 30.22 in1023.4 mb 0.00 in0.0 mm 0.00 in/hr0.0 mm/hr 0.00 in0.0 mm
04:13 AM 28.2°F-2.1°C 22.8°F-5.1°C 80% 0.9 mph SE1.4 kmh SE 0.9 mph1.4 kmh 30.22 in1023.4 mb 0.00 in0.0 mm 0.00 in/hr0.0 mm/hr 0.00 in0.0 mm
04:12 AM 28.2°F-2.1°C 22.8°F-5.1°C 80% 0.9 mph ESE1.4 kmh ESE 0.9 mph1.4 kmh 30.22 in1023.4 mb 0.00 in0.0 mm 0.00 in/hr0.0 mm/hr 0.00 in0.0 mm
04:11 AM 28.2°F-2.1°C 22.8°F-5.1°C 80% 0.9 mph ESE1.4 kmh ESE 0.9 mph1.4 kmh 30.22 in1023.4 mb 0.00 in0.0 mm 0.00 in/hr0.0 mm/hr 0.00 in0.0 mm
04:10 AM 28.2°F-2.1°C 22.8°F-5.1°C 80% 0.9 mph ESE1.4 kmh ESE 0.9 mph1.4 kmh 30.22 in1023.4 mb 0.00 in0.0 mm 0.00 in/hr0.0 mm/hr 0.00 in0.0 mm
04:09 AM 28.2°F-2.1°C 23.2°F-4.9°C 81% 0.9 mph SE1.4 kmh SE 2.0 mph3.2 kmh 30.22 in1023.4 mb 0.00 in0.0 mm 0.00 in/hr0.0 mm/hr 0.00 in0.0 mm
04:08 AM 28.2°F-2.1°C 23.2°F-4.9°C 81% 0.9 mph SE1.4 kmh SE 2.0 mph3.2 kmh 30.22 in1023.4 mb 0.00 in0.0 mm 0.00 in/hr0.0 mm/hr 0.00 in0.0 mm
04:07 AM 28.4°F-2.0°C 23.4°F-4.8°C 81% 0.9 mph E1.4 kmh E 2.0 mph3.2 kmh 30.22 in1023.4 mb 0.00 in0.0 mm 0.00 in/hr0.0 mm/hr 0.00 in0.0 mm
04:06 AM 28.4°F-2.0°C 23.4°F-4.8°C 81% Calm Calm 3.0 mph4.8 kmh 30.22 in1023.4 mb 0.00 in0.0 mm 0.00 in/hr0.0 mm/hr 0.00 in0.0 mm
04:05 AM 28.2°F-2.1°C 23.2°F-4.9°C 81% Calm Calm 2.0 mph3.2 kmh 30.22 in1023.4 mb 0.00 in0.0 mm 0.00 in/hr0.0 mm/hr 0.00 in0.0 mm
04:04 AM 28.4°F-2.0°C 23.5°F-4.7°C 82% Calm Calm 2.0 mph3.2 kmh 30.22 in1023.4 mb 0.00 in0.0 mm 0.00 in/hr0.0 mm/hr 0.00 in0.0 mm
04:03 AM 28.4°F-2.0°C 23.5°F-4.7°C 82% Calm Calm 0.9 mph1.4 kmh 30.22 in1023.4 mb 0.00 in0.0 mm 0.00 in/hr0.0 mm/hr 0.00 in0.0 mm
04:02 AM 28.4°F-2.0°C 23.5°F-4.7°C 82% 0.9 mph ESE1.4 kmh ESE 2.0 mph3.2 kmh 30.22 in1023.4 mb 0.00 in0.0 mm 0.00 in/hr0.0 mm/hr 0.00 in0.0 mm
04:01 AM 28.4°F-2.0°C 23.9°F-4.5°C 83% Calm Calm 2.0 mph3.2 kmh 30.22 in1023.4 mb 0.00 in0.0 mm 0.00 in/hr0.0 mm/hr 0.00 in0.0 mm
04:00 AM 28.4°F-2.0°C 23.9°F-4.5°C 83% 0.9 mph ESE1.4 kmh ESE 2.0 mph3.2 kmh 30.22 in1023.4 mb 0.00 in0.0 mm 0.00 in/hr0.0 mm/hr 0.00 in0.0 mm
03:59 AM 28.6°F-1.9°C 24.1°F-4.4°C 83% 0.9 mph E1.4 kmh E 0.9 mph1.4 kmh 30.22 in1023.4 mb 0.00 in0.0 mm 0.00 in/hr0.0 mm/hr 0.00 in0.0 mm
03:58 AM 28.4°F-2.0°C 24.3°F-4.3°C 84% 0.9 mph E1.4 kmh E 0.9 mph1.4 kmh 30.22 in1023.4 mb 0.00 in0.0 mm 0.00 in/hr0.0 mm/hr 0.00 in0.0 mm
03:57 AM 28.4°F-2.0°C 24.3°F-4.3°C 84% 0.9 mph ESE1.4 kmh ESE 0.9 mph1.4 kmh 30.22 in1023.4 mb 0.00 in0.0 mm 0.00 in/hr0.0 mm/hr 0.00 in0.0 mm
03:56 AM 28.6°F-1.9°C 24.4°F-4.2°C 84% 0.9 mph SE1.4 kmh SE 2.0 mph3.2 kmh 30.22 in1023.4 mb 0.00 in0.0 mm 0.00 in/hr0.0 mm/hr 0.00 in0.0 mm
03:55 AM 28.6°F-1.9°C 24.4°F-4.2°C 84% 0.9 mph SE1.4 kmh SE 2.0 mph3.2 kmh 30.22 in1023.4 mb 0.00 in0.0 mm 0.00 in/hr0.0 mm/hr 0.00 in0.0 mm
03:54 AM 28.6°F-1.9°C 24.4°F-4.2°C 84% 0.9 mph SE1.4 kmh SE 0.9 mph1.4 kmh 30.22 in1023.4 mb 0.00 in0.0 mm 0.00 in/hr0.0 mm/hr 0.00 in0.0 mm
03:53 AM 28.6°F-1.9°C 24.4°F-4.2°C 84% 0.9 mph SE1.4 kmh SE 2.9 mph4.7 kmh 30.22 in1023.4 mb 0.00 in0.0 mm 0.00 in/hr0.0 mm/hr 0.00 in0.0 mm
03:52 AM 28.6°F-1.9°C 24.4°F-4.2°C 84% 0.9 mph SE1.4 kmh SE 2.9 mph4.7 kmh 30.22 in1023.4 mb 0.00 in0.0 mm 0.00 in/hr0.0 mm/hr 0.00 in0.0 mm
03:51 AM 28.6°F-1.9°C 24.4°F-4.2°C 84% 0.9 mph SE1.4 kmh SE 2.0 mph3.2 kmh 30.22 in1023.4 mb 0.00 in0.0 mm 0.00 in/hr0.0 mm/hr 0.00 in0.0 mm
03:50 AM 28.6°F-1.9°C 24.6°F-4.1°C 85% 0.9 mph NE1.4 kmh NE 6.0 mph9.7 kmh 30.22 in1023.4 mb 0.00 in0.0 mm 0.00 in/hr0.0 mm/hr 0.00 in0.0 mm
03:49 AM 28.6°F-1.9°C 24.6°F-4.1°C 85% 0.9 mph SE1.4 kmh SE 6.0 mph9.7 kmh 30.22 in1023.4 mb 0.00 in0.0 mm 0.00 in/hr0.0 mm/hr 0.00 in0.0 mm
03:48 AM 28.6°F-1.9°C 24.6°F-4.1°C 85% 0.9 mph ESE1.4 kmh ESE 5.0 mph8.0 kmh 30.22 in1023.4 mb 0.00 in0.0 mm 0.00 in/hr0.0 mm/hr 0.00 in0.0 mm
03:47 AM 28.6°F-1.9°C 24.6°F-4.1°C 85% 0.9 mph SE1.4 kmh SE 2.0 mph3.2 kmh 30.22 in1023.4 mb 0.00 in0.0 mm 0.00 in/hr0.0 mm/hr 0.00 in0.0 mm
03:46 AM 28.6°F-1.9°C 24.6°F-4.1°C 85% 0.9 mph E1.4 kmh E 2.0 mph3.2 kmh 30.22 in1023.4 mb 0.00 in0.0 mm 0.00 in/hr0.0 mm/hr 0.00 in0.0 mm
03:45 AM 28.6°F-1.9°C 24.6°F-4.1°C 85% 0.9 mph SE1.4 kmh SE 2.0 mph3.2 kmh 30.22 in1023.4 mb 0.00 in0.0 mm 0.00 in/hr0.0 mm/hr 0.00 in0.0 mm
03:44 AM 28.6°F-1.9°C 24.6°F-4.1°C 85% 0.9 mph SE1.4 kmh SE 4.0 mph6.4 kmh 30.22 in1023.4 mb 0.00 in0.0 mm 0.00 in/hr0.0 mm/hr 0.00 in0.0 mm
03:43 AM 28.6°F-1.9°C 24.6°F-4.1°C 85% Calm Calm 2.0 mph3.2 kmh 30.22 in1023.4 mb 0.00 in0.0 mm 0.00 in/hr0.0 mm/hr 0.00 in0.0 mm
03:42 AM 28.6°F-1.9°C 24.6°F-4.1°C 85% Calm Calm 2.9 mph4.7 kmh 30.22 in1023.4 mb 0.00 in0.0 mm 0.00 in/hr0.0 mm/hr 0.00 in0.0 mm
03:41 AM 28.6°F-1.9°C 24.6°F-4.1°C 85% Calm Calm 0.9 mph1.4 kmh 30.22 in1023.4 mb 0.00 in0.0 mm 0.00 in/hr0.0 mm/hr 0.00 in0.0 mm
03:40 AM 28.6°F-1.9°C 24.6°F-4.1°C 85% Calm Calm -- 30.22 in1023.4 mb 0.00 in0.0 mm 0.00 in/hr0.0 mm/hr 0.00 in0.0 mm
03:39 AM 28.6°F-1.9°C 24.6°F-4.1°C 85% 0.9 mph ESE1.4 kmh ESE 0.9 mph1.4 kmh 30.22 in1023.4 mb 0.00 in0.0 mm 0.00 in/hr0.0 mm/hr 0.00 in0.0 mm
03:38 AM 28.6°F-1.9°C 24.6°F-4.1°C 85% 0.9 mph ESE1.4 kmh ESE 0.9 mph1.4 kmh 30.22 in1023.4 mb 0.00 in0.0 mm 0.00 in/hr0.0 mm/hr 0.00 in0.0 mm
03:37 AM 28.6°F-1.9°C 24.6°F-4.1°C 85% 0.9 mph ESE1.4 kmh ESE 0.9 mph1.4 kmh 30.22 in1023.4 mb 0.00 in0.0 mm 0.00 in/hr0.0 mm/hr 0.00 in0.0 mm
03:36 AM 28.6°F-1.9°C 24.6°F-4.1°C 85% Calm Calm 2.0 mph3.2 kmh 30.22 in1023.4 mb 0.00 in0.0 mm 0.00 in/hr0.0 mm/hr 0.00 in0.0 mm
03:35 AM 28.6°F-1.9°C 24.4°F-4.2°C 84% Calm Calm 2.0 mph3.2 kmh 30.22 in1023.4 mb 0.00 in0.0 mm 0.00 in/hr0.0 mm/hr 0.00 in0.0 mm
03:34 AM 28.6°F-1.9°C 24.4°F-4.2°C 84% 0.9 mph SE1.4 kmh SE -- 30.22 in1023.4 mb 0.00 in0.0 mm 0.00 in/hr0.0 mm/hr 0.00 in0.0 mm
03:33 AM 28.6°F-1.9°C 24.4°F-4.2°C 84% 0.9 mph ESE1.4 kmh ESE 0.9 mph1.4 kmh 30.22 in1023.4 mb 0.00 in0.0 mm 0.00 in/hr0.0 mm/hr 0.00 in0.0 mm
03:32 AM 28.6°F-1.9°C 24.4°F-4.2°C 84% 0.9 mph ESE1.4 kmh ESE 0.9 mph1.4 kmh 30.22 in1023.4 mb 0.00 in0.0 mm 0.00 in/hr0.0 mm/hr 0.00 in0.0 mm
03:31 AM 28.6°F-1.9°C 24.4°F-4.2°C 84% 0.9 mph ESE1.4 kmh ESE 2.0 mph3.2 kmh 30.22 in1023.4 mb 0.00 in0.0 mm 0.00 in/hr0.0 mm/hr 0.00 in0.0 mm
03:30 AM 28.6°F-1.9°C 24.4°F-4.2°C 84% 0.9 mph ESE1.4 kmh ESE 0.9 mph1.4 kmh 30.21 in1023.0 mb 0.00 in0.0 mm 0.00 in/hr0.0 mm/hr 0.00 in0.0 mm
03:29 AM 28.6°F-1.9°C 24.4°F-4.2°C 84% Calm Calm 2.9 mph4.7 kmh 30.21 in1023.0 mb 0.00 in0.0 mm 0.00 in/hr0.0 mm/hr 0.00 in0.0 mm
03:28 AM 28.6°F-1.9°C 24.1°F-4.4°C 83% Calm Calm 2.9 mph4.7 kmh 30.21 in1023.0 mb 0.00 in0.0 mm 0.00 in/hr0.0 mm/hr 0.00 in0.0 mm
03:27 AM 28.6°F-1.9°C 24.1°F-4.4°C 83% Calm Calm 0.9 mph1.4 kmh 30.21 in1023.0 mb 0.00 in0.0 mm 0.00 in/hr0.0 mm/hr 0.00 in0.0 mm
03:26 AM 28.6°F-1.9°C 24.1°F-4.4°C 83% Calm Calm 0.9 mph1.4 kmh 30.21 in1023.0 mb 0.00 in0.0 mm 0.00 in/hr0.0 mm/hr 0.00 in0.0 mm
03:25 AM 28.6°F-1.9°C 24.1°F-4.4°C 83% Calm Calm 2.9 mph4.7 kmh 30.21 in1023.0 mb 0.00 in0.0 mm 0.00 in/hr0.0 mm/hr 0.00 in0.0 mm
03:24 AM 28.6°F-1.9°C 24.1°F-4.4°C 83% Calm Calm 2.9 mph4.7 kmh 30.21 in1023.0 mb 0.00 in0.0 mm 0.00 in/hr0.0 mm/hr 0.00 in0.0 mm
03:23 AM 28.6°F-1.9°C 24.4°F-4.2°C 84% Calm Calm 0.9 mph1.4 kmh 30.21 in1023.0 mb 0.00 in0.0 mm 0.00 in/hr0.0 mm/hr 0.00 in0.0 mm
03:22 AM 28.6°F-1.9°C 24.4°F-4.2°C 84% 0.9 mph ENE1.4 kmh ENE 2.0 mph3.2 kmh 30.21 in1023.0 mb 0.00 in0.0 mm 0.00 in/hr0.0 mm/hr 0.00 in0.0 mm
03:21 AM 28.8°F-1.8°C 24.6°F-4.1°C 84% 0.9 mph E1.4 kmh E 2.0 mph3.2 kmh 30.21 in1023.0 mb 0.00 in0.0 mm 0.00 in/hr0.0 mm/hr 0.00 in0.0 mm
03:20 AM 28.8°F-1.8°C 24.6°F-4.1°C 84% 0.9 mph ESE1.4 kmh ESE 0.9 mph1.4 kmh 30.21 in1023.0 mb 0.00 in0.0 mm 0.00 in/hr0.0 mm/hr 0.00 in0.0 mm
03:19 AM 28.8°F-1.8°C 24.6°F-4.1°C 84% 0.9 mph ESE1.4 kmh ESE -- 30.21 in1023.0 mb 0.00 in0.0 mm 0.00 in/hr0.0 mm/hr 0.00 in0.0 mm
03:18 AM 28.8°F-1.8°C 24.3°F-4.3°C 83% 0.9 mph ESE1.4 kmh ESE 2.0 mph3.2 kmh 30.21 in1023.0 mb 0.00 in0.0 mm 0.00 in/hr0.0 mm/hr 0.00 in0.0 mm
03:17 AM 28.8°F-1.8°C 24.3°F-4.3°C 83% 0.9 mph E1.4 kmh E 0.9 mph1.4 kmh 30.21 in1023.0 mb 0.00 in0.0 mm 0.00 in/hr0.0 mm/hr 0.00 in0.0 mm
03:16 AM 28.8°F-1.8°C 23.9°F-4.5°C 82% 0.9 mph ESE1.4 kmh ESE 0.9 mph1.4 kmh 30.21 in1023.0 mb 0.00 in0.0 mm 0.00 in/hr0.0 mm/hr 0.00 in0.0 mm
03:15 AM 28.8°F-1.8°C 23.9°F-4.5°C 82% 0.9 mph SE1.4 kmh SE 2.0 mph3.2 kmh 30.21 in1023.0 mb 0.00 in0.0 mm 0.00 in/hr0.0 mm/hr 0.00 in0.0 mm
03:14 AM 28.8°F-1.8°C 23.7°F-4.6°C 81% 0.9 mph SE1.4 kmh SE 0.9 mph1.4 kmh 30.21 in1023.0 mb 0.00 in0.0 mm 0.00 in/hr0.0 mm/hr 0.00 in0.0 mm
03:13 AM 28.8°F-1.8°C 23.4°F-4.8°C 80% 0.9 mph SE1.4 kmh SE 0.9 mph1.4 kmh 30.21 in1023.0 mb 0.00 in0.0 mm 0.00 in/hr0.0 mm/hr 0.00 in0.0 mm
03:12 AM 28.8°F-1.8°C 23.4°F-4.8°C 80% 0.9 mph ESE1.4 kmh ESE 2.9 mph4.7 kmh 30.21 in1023.0 mb 0.00 in0.0 mm 0.00 in/hr0.0 mm/hr 0.00 in0.0 mm
03:11 AM 28.8°F-1.8°C 23.0°F-5.0°C 79% 0.9 mph SE1.4 kmh SE 2.9 mph4.7 kmh 30.21 in1023.0 mb 0.00 in0.0 mm 0.00 in/hr0.0 mm/hr 0.00 in0.0 mm
03:10 AM 28.8°F-1.8°C 23.0°F-5.0°C 79% 0.9 mph S1.4 kmh S 2.0 mph3.2 kmh 30.21 in1023.0 mb 0.00 in0.0 mm 0.00 in/hr0.0 mm/hr 0.00 in0.0 mm
03:09 AM 28.6°F-1.9°C 22.6°F-5.2°C 78% 0.9 mph SE1.4 kmh SE 0.9 mph1.4 kmh 30.21 in1023.0 mb 0.00 in0.0 mm 0.00 in/hr0.0 mm/hr 0.00 in0.0 mm
03:08 AM 28.6°F-1.9°C 22.6°F-5.2°C 78% 0.9 mph ESE1.4 kmh ESE 0.9 mph1.4 kmh 30.21 in1023.0 mb 0.00 in0.0 mm 0.00 in/hr0.0 mm/hr 0.00 in0.0 mm
03:07 AM 28.8°F-1.8°C 22.8°F-5.1°C 78% 0.9 mph SSE1.4 kmh SSE 0.9 mph1.4 kmh 30.21 in1023.0 mb 0.00 in0.0 mm 0.00 in/hr0.0 mm/hr 0.00 in0.0 mm
03:06 AM 28.6°F-1.9°C 22.3°F-5.4°C 77% 0.9 mph E1.4 kmh E 0.9 mph1.4 kmh 30.21 in1023.0 mb 0.00 in0.0 mm 0.00 in/hr0.0 mm/hr 0.00 in0.0 mm
03:05 AM 28.6°F-1.9°C 22.3°F-5.4°C 77% 0.9 mph ESE1.4 kmh ESE 2.9 mph4.7 kmh 30.21 in1023.0 mb 0.00 in0.0 mm 0.00 in/hr0.0 mm/hr 0.00 in0.0 mm
03:04 AM 28.6°F-1.9°C 22.3°F-5.4°C 77% 0.9 mph ENE1.4 kmh ENE 5.0 mph8.0 kmh 30.21 in1023.0 mb 0.00 in0.0 mm 0.00 in/hr0.0 mm/hr 0.00 in0.0 mm
03:03 AM 28.6°F-1.9°C 22.6°F-5.2°C 78% 0.9 mph ENE1.4 kmh ENE 2.0 mph3.2 kmh 30.21 in1023.0 mb 0.00 in0.0 mm 0.00 in/hr0.0 mm/hr 0.00 in0.0 mm
03:02 AM 28.6°F-1.9°C 22.6°F-5.2°C 78% 0.9 mph ENE1.4 kmh ENE 2.0 mph3.2 kmh 30.21 in1023.0 mb 0.00 in0.0 mm 0.00 in/hr0.0 mm/hr 0.00 in0.0 mm
03:01 AM 28.6°F-1.9°C 22.6°F-5.2°C 78% 0.9 mph E1.4 kmh E 2.0 mph3.2 kmh 30.21 in1023.0 mb 0.00 in0.0 mm 0.00 in/hr0.0 mm/hr 0.00 in0.0 mm
03:00 AM 28.6°F-1.9°C 22.6°F-5.2°C 78% 0.9 mph SE1.4 kmh SE 2.9 mph4.7 kmh 30.22 in1023.4 mb 0.00 in0.0 mm 0.00 in/hr0.0 mm/hr 0.00 in0.0 mm
02:59 AM 28.6°F-1.9°C 22.6°F-5.2°C 78% 0.9 mph ENE1.4 kmh ENE 2.9 mph4.7 kmh 30.22 in1023.4 mb 0.00 in0.0 mm 0.00 in/hr0.0 mm/hr 0.00 in0.0 mm
02:58 AM 28.6°F-1.9°C 22.6°F-5.2°C 78% 0.9 mph E1.4 kmh E 2.9 mph4.7 kmh 30.22 in1023.4 mb 0.00 in0.0 mm 0.00 in/hr0.0 mm/hr 0.00 in0.0 mm
02:57 AM 28.6°F-1.9°C 22.8°F-5.1°C 79% 0.9 mph ENE1.4 kmh ENE 2.0 mph3.2 kmh 30.22 in1023.4 mb 0.00 in0.0 mm 0.00 in/hr0.0 mm/hr 0.00 in0.0 mm
02:56 AM 28.6°F-1.9°C 22.8°F-5.1°C 79% 0.9 mph E1.4 kmh E 2.0 mph3.2 kmh 30.22 in1023.4 mb 0.00 in0.0 mm 0.00 in/hr0.0 mm/hr 0.00 in0.0 mm
02:55 AM 28.8°F-1.8°C 23.0°F-5.0°C 79% 0.9 mph SE1.4 kmh SE 0.9 mph1.4 kmh 30.22 in1023.4 mb 0.00 in0.0 mm 0.00 in/hr0.0 mm/hr 0.00 in0.0 mm
02:54 AM 28.8°F-1.8°C 23.0°F-5.0°C 79% 0.9 mph SE1.4 kmh SE 0.9 mph1.4 kmh 30.22 in1023.4 mb 0.00 in0.0 mm 0.00 in/hr0.0 mm/hr 0.00 in0.0 mm
02:53 AM 28.8°F-1.8°C 23.0°F-5.0°C 79% 0.9 mph SE1.4 kmh SE -- 30.22 in1023.4 mb 0.00 in0.0 mm 0.00 in/hr0.0 mm/hr 0.00 in0.0 mm
02:52 AM 28.8°F-1.8°C 22.8°F-5.1°C 78% 0.9 mph SE1.4 kmh SE 2.9 mph4.7 kmh 30.22 in1023.4 mb 0.00 in0.0 mm 0.00 in/hr0.0 mm/hr 0.00 in0.0 mm
02:51 AM 28.8°F-1.8°C 22.8°F-5.1°C 78% 0.9 mph ENE1.4 kmh ENE 2.9 mph4.7 kmh 30.22 in1023.4 mb 0.00 in0.0 mm 0.00 in/hr0.0 mm/hr 0.00 in0.0 mm
02:50 AM 28.8°F-1.8°C 23.0°F-5.0°C 79% 0.9 mph E1.4 kmh E 2.9 mph4.7 kmh 30.22 in1023.4 mb 0.00 in0.0 mm 0.00 in/hr0.0 mm/hr 0.00 in0.0 mm
02:49 AM 28.8°F-1.8°C 23.0°F-5.0°C 79% 0.9 mph ESE1.4 kmh ESE -- 30.22 in1023.4 mb 0.00 in0.0 mm 0.00 in/hr0.0 mm/hr 0.00 in0.0 mm
02:48 AM 28.8°F-1.8°C 22.8°F-5.1°C 78% 0.9 mph ESE1.4 kmh ESE 4.0 mph6.4 kmh 30.22 in1023.4 mb 0.00 in0.0 mm 0.00 in/hr0.0 mm/hr 0.00 in0.0 mm
02:47 AM 28.8°F-1.8°C 22.8°F-5.1°C 78% 0.9 mph ENE1.4 kmh ENE 4.0 mph6.4 kmh 30.22 in1023.4 mb 0.00 in0.0 mm 0.00 in/hr0.0 mm/hr 0.00 in0.0 mm
02:46 AM 28.8°F-1.8°C 23.0°F-5.0°C 79% 0.9 mph ENE1.4 kmh ENE 2.0 mph3.2 kmh 30.22 in1023.4 mb 0.00 in0.0 mm 0.00 in/hr0.0 mm/hr 0.00 in0.0 mm
02:45 AM 28.8°F-1.8°C 23.0°F-5.0°C 79% 0.9 mph ENE1.4 kmh ENE 2.9 mph4.7 kmh 30.21 in1023.0 mb 0.00 in0.0 mm 0.00 in/hr0.0 mm/hr 0.00 in0.0 mm
02:44 AM 28.8°F-1.8°C 22.8°F-5.1°C 78% 0.9 mph SE1.4 kmh SE 2.9 mph4.7 kmh 30.21 in1023.0 mb 0.00 in0.0 mm 0.00 in/hr0.0 mm/hr 0.00 in0.0 mm
02:43 AM 28.6°F-1.9°C 22.8°F-5.1°C 79% 0.9 mph ENE1.4 kmh ENE 2.9 mph4.7 kmh 30.21 in1023.0 mb 0.00 in0.0 mm 0.00 in/hr0.0 mm/hr 0.00 in0.0 mm
02:42 AM 28.6°F-1.9°C 22.8°F-5.1°C 79% 0.9 mph ENE1.4 kmh ENE 2.9 mph4.7 kmh 30.21 in1023.0 mb 0.00 in0.0 mm 0.00 in/hr0.0 mm/hr 0.00 in0.0 mm
02:41 AM 28.6°F-1.9°C 22.8°F-5.1°C 79% 0.9 mph ENE1.4 kmh ENE 0.9 mph1.4 kmh 30.21 in1023.0 mb 0.00 in0.0 mm 0.00 in/hr0.0 mm/hr 0.00 in0.0 mm
02:40 AM 28.6°F-1.9°C 22.8°F-5.1°C 79% 0.9 mph E1.4 kmh E 0.9 mph1.4 kmh 30.21 in1023.0 mb 0.00 in0.0 mm 0.00 in/hr0.0 mm/hr 0.00 in0.0 mm
02:39 AM 28.6°F-1.9°C 22.6°F-5.2°C 78% 0.9 mph ESE1.4 kmh ESE 0.9 mph1.4 kmh 30.21 in1023.0 mb 0.00 in0.0 mm 0.00 in/hr0.0 mm/hr 0.00 in0.0 mm
02:38 AM 28.6°F-1.9°C 22.6°F-5.2°C 78% 0.9 mph ESE1.4 kmh ESE 0.9 mph1.4 kmh 30.21 in1023.0 mb 0.00 in0.0 mm 0.00 in/hr0.0 mm/hr 0.00 in0.0 mm
02:37 AM 28.6°F-1.9°C 22.6°F-5.2°C 78% 0.9 mph ESE1.4 kmh ESE 2.9 mph4.7 kmh 30.21 in1023.0 mb 0.00 in0.0 mm 0.00 in/hr0.0 mm/hr 0.00 in0.0 mm
02:36 AM 28.6°F-1.9°C 22.6°F-5.2°C 78% 0.9 mph E1.4 kmh E 5.0 mph8.0 kmh 30.21 in1023.0 mb 0.00 in0.0 mm 0.00 in/hr0.0 mm/hr 0.00 in0.0 mm
02:35 AM 28.6°F-1.9°C 22.6°F-5.2°C 78% Calm Calm 5.0 mph8.0 kmh 30.21 in1023.0 mb 0.00 in0.0 mm 0.00 in/hr0.0 mm/hr 0.00 in0.0 mm
02:34 AM 28.6°F-1.9°C 22.6°F-5.2°C 78% Calm Calm 3.0 mph4.8 kmh 30.21 in1023.0 mb 0.00 in0.0 mm 0.00 in/hr0.0 mm/hr 0.00 in0.0 mm
02:33 AM 28.6°F-1.9°C 22.8°F-5.1°C 79% Calm Calm 0.9 mph1.4 kmh 30.21 in1023.0 mb 0.00 in0.0 mm 0.00 in/hr0.0 mm/hr 0.00 in0.0 mm
02:32 AM 28.6°F-1.9°C 22.8°F-5.1°C 79% Calm Calm 0.9 mph1.4 kmh 30.21 in1023.0 mb 0.00 in0.0 mm 0.00 in/hr0.0 mm/hr 0.00 in0.0 mm
02:31 AM 28.6°F-1.9°C 22.8°F-5.1°C 79% Calm Calm 0.9 mph1.4 kmh 30.21 in1023.0 mb 0.00 in0.0 mm 0.00 in/hr0.0 mm/hr 0.00 in0.0 mm
02:30 AM 28.6°F-1.9°C 22.8°F-5.1°C 79% Calm Calm 0.9 mph1.4 kmh 30.22 in1023.4 mb 0.00 in0.0 mm 0.00 in/hr0.0 mm/hr 0.00 in0.0 mm
02:29 AM 28.6°F-1.9°C 22.6°F-5.2°C 78% Calm Calm 0.9 mph1.4 kmh 30.22 in1023.4 mb 0.00 in0.0 mm 0.00 in/hr0.0 mm/hr 0.00 in0.0 mm
02:28 AM 28.6°F-1.9°C 22.6°F-5.2°C 78% Calm Calm 2.0 mph3.2 kmh 30.22 in1023.4 mb 0.00 in0.0 mm 0.00 in/hr0.0 mm/hr 0.00 in0.0 mm
02:27 AM 28.6°F-1.9°C 22.6°F-5.2°C 78% 0.9 mph SE1.4 kmh SE 2.0 mph3.2 kmh 30.22 in1023.4 mb 0.00 in0.0 mm 0.00 in/hr0.0 mm/hr 0.00 in0.0 mm
02:26 AM 28.6°F-1.9°C 22.6°F-5.2°C 78% 0.9 mph SE1.4 kmh SE 2.0 mph3.2 kmh 30.22 in1023.4 mb 0.00 in0.0 mm 0.00 in/hr0.0 mm/hr 0.00 in0.0 mm
02:25 AM 28.6°F-1.9°C 22.6°F-5.2°C 78% 0.9 mph ENE1.4 kmh ENE 2.0 mph3.2 kmh 30.22 in1023.4 mb 0.00 in0.0 mm 0.00 in/hr0.0 mm/hr 0.00 in0.0 mm
02:24 AM 28.6°F-1.9°C 22.6°F-5.2°C 78% 0.9 mph E1.4 kmh E 2.0 mph3.2 kmh 30.22 in1023.4 mb 0.00 in0.0 mm 0.00 in/hr0.0 mm/hr 0.00 in0.0 mm
02:23 AM 28.6°F-1.9°C 22.6°F-5.2°C 78% 0.9 mph ENE1.4 kmh ENE 2.9 mph4.7 kmh 30.22 in1023.4 mb 0.00 in0.0 mm 0.00 in/hr0.0 mm/hr 0.00 in0.0 mm
02:22 AM 28.6°F-1.9°C 22.8°F-5.1°C 79% 0.9 mph E1.4 kmh E 2.9 mph4.7 kmh 30.22 in1023.4 mb 0.00 in0.0 mm 0.00 in/hr0.0 mm/hr 0.00 in0.0 mm
02:21 AM 28.6°F-1.9°C 22.8°F-5.1°C 79% 0.9 mph SE1.4 kmh SE 0.9 mph1.4 kmh 30.22 in1023.4 mb 0.00 in0.0 mm 0.00 in/hr0.0 mm/hr 0.00 in0.0 mm
02:20 AM 28.6°F-1.9°C 22.8°F-5.1°C 79% 0.9 mph SE1.4 kmh SE 0.9 mph1.4 kmh 30.22 in1023.4 mb 0.00 in0.0 mm 0.00 in/hr0.0 mm/hr 0.00 in0.0 mm
02:19 AM 28.6°F-1.9°C 22.8°F-5.1°C 79% 0.9 mph E1.4 kmh E -- 30.22 in1023.4 mb 0.00 in0.0 mm 0.00 in/hr0.0 mm/hr 0.00 in0.0 mm
02:18 AM 28.6°F-1.9°C 22.8°F-5.1°C 79% 0.9 mph NE1.4 kmh NE 2.0 mph3.2 kmh 30.22 in1023.4 mb 0.00 in0.0 mm 0.00 in/hr0.0 mm/hr 0.00 in0.0 mm
02:17 AM 28.6°F-1.9°C 22.8°F-5.1°C 79% 0.9 mph ENE1.4 kmh ENE 2.0 mph3.2 kmh 30.22 in1023.4 mb 0.00 in0.0 mm 0.00 in/hr0.0 mm/hr 0.00 in0.0 mm
02:16 AM 28.6°F-1.9°C 22.8°F-5.1°C 79% 0.9 mph NE1.4 kmh NE 0.9 mph1.4 kmh 30.22 in1023.4 mb 0.00 in0.0 mm 0.00 in/hr0.0 mm/hr 0.00 in0.0 mm
02:15 AM 28.6°F-1.9°C 22.8°F-5.1°C 79% 0.9 mph ESE1.4 kmh ESE 2.0 mph3.2 kmh 30.22 in1023.4 mb 0.00 in0.0 mm 0.00 in/hr0.0 mm/hr 0.00 in0.0 mm
02:14 AM 28.6°F-1.9°C 22.8°F-5.1°C 79% 0.9 mph E1.4 kmh E 4.0 mph6.4 kmh 30.22 in1023.4 mb 0.00 in0.0 mm 0.00 in/hr0.0 mm/hr 0.00 in0.0 mm
02:13 AM 28.6°F-1.9°C 23.2°F-4.9°C 80% 0.9 mph ENE1.4 kmh ENE 2.0 mph3.2 kmh 30.22 in1023.4 mb 0.00 in0.0 mm 0.00 in/hr0.0 mm/hr 0.00 in0.0 mm
02:12 AM 28.6°F-1.9°C 23.2°F-4.9°C 80% 0.9 mph ENE1.4 kmh ENE 2.0 mph3.2 kmh 30.22 in1023.4 mb 0.00 in0.0 mm 0.00 in/hr0.0 mm/hr 0.00 in0.0 mm
02:11 AM 28.6°F-1.9°C 23.2°F-4.9°C 80% 0.9 mph E1.4 kmh E 0.9 mph1.4 kmh 30.22 in1023.4 mb 0.00 in0.0 mm 0.00 in/hr0.0 mm/hr 0.00 in0.0 mm
02:10 AM 28.6°F-1.9°C 23.2°F-4.9°C 80% 0.9 mph E1.4 kmh E 4.9 mph7.9 kmh 30.22 in1023.4 mb 0.00 in0.0 mm 0.00 in/hr0.0 mm/hr 0.00 in0.0 mm
02:09 AM 28.6°F-1.9°C 23.2°F-4.9°C 80% 0.9 mph SE1.4 kmh SE 4.0 mph6.4 kmh 30.22 in1023.4 mb 0.00 in0.0 mm 0.00 in/hr0.0 mm/hr 0.00 in0.0 mm
02:08 AM 28.6°F-1.9°C 23.5°F-4.7°C 81% 0.9 mph E1.4 kmh E 4.0 mph6.4 kmh 30.22 in1023.4 mb 0.00 in0.0 mm 0.00 in/hr0.0 mm/hr 0.00 in0.0 mm
02:07 AM 28.6°F-1.9°C 23.5°F-4.7°C 81% 0.9 mph SE1.4 kmh SE 2.0 mph3.2 kmh 30.22 in1023.4 mb 0.00 in0.0 mm 0.00 in/hr0.0 mm/hr 0.00 in0.0 mm
02:06 AM 28.6°F-1.9°C 23.5°F-4.7°C 81% 0.9 mph E1.4 kmh E 0.9 mph1.4 kmh 30.22 in1023.4 mb 0.00 in0.0 mm 0.00 in/hr0.0 mm/hr 0.00 in0.0 mm
02:05 AM 28.6°F-1.9°C 23.5°F-4.7°C 81% 0.9 mph SE1.4 kmh SE 2.0 mph3.2 kmh 30.22 in1023.4 mb 0.00 in0.0 mm 0.00 in/hr0.0 mm/hr 0.00 in0.0 mm
02:04 AM 28.6°F-1.9°C 23.5°F-4.7°C 81% 0.9 mph ESE1.4 kmh ESE 2.0 mph3.2 kmh 30.22 in1023.4 mb 0.00 in0.0 mm 0.00 in/hr0.0 mm/hr 0.00 in0.0 mm
02:03 AM 28.6°F-1.9°C 23.5°F-4.7°C 81% 0.9 mph ESE1.4 kmh ESE 2.9 mph4.7 kmh 30.22 in1023.4 mb 0.00 in0.0 mm 0.00 in/hr0.0 mm/hr 0.00 in0.0 mm
02:02 AM 28.6°F-1.9°C 23.5°F-4.7°C 81% 2.0 mph E3.2 kmh E 2.0 mph3.2 kmh 30.22 in1023.4 mb 0.00 in0.0 mm 0.00 in/hr0.0 mm/hr 0.00 in0.0 mm
02:01 AM 28.6°F-1.9°C 23.5°F-4.7°C 81% 2.0 mph ESE3.2 kmh ESE 2.9 mph4.7 kmh 30.22 in1023.4 mb 0.00 in0.0 mm 0.00 in/hr0.0 mm/hr 0.00 in0.0 mm
02:00 AM 28.6°F-1.9°C 23.5°F-4.7°C 81% 2.0 mph E3.2 kmh E 2.0 mph3.2 kmh 30.21 in1023.0 mb 0.00 in0.0 mm 0.00 in/hr0.0 mm/hr 0.00 in0.0 mm
01:59 AM 28.6°F-1.9°C 23.5°F-4.7°C 81% 2.0 mph SE3.2 kmh SE 0.9 mph1.4 kmh 30.21 in1023.0 mb 0.00 in0.0 mm 0.00 in/hr0.0 mm/hr 0.00 in0.0 mm
01:58 AM 28.6°F-1.9°C 23.5°F-4.7°C 81% 2.0 mph SE3.2 kmh SE 2.9 mph4.7 kmh 30.21 in1023.0 mb 0.00 in0.0 mm 0.00 in/hr0.0 mm/hr 0.00 in0.0 mm
01:57 AM 28.6°F-1.9°C 23.5°F-4.7°C 81% 2.0 mph ESE3.2 kmh ESE 2.9 mph4.7 kmh 30.21 in1023.0 mb 0.00 in0.0 mm 0.00 in/hr0.0 mm/hr 0.00 in0.0 mm
01:56 AM 28.6°F-1.9°C 23.5°F-4.7°C 81% 2.0 mph ESE3.2 kmh ESE 2.9 mph4.7 kmh 30.21 in1023.0 mb 0.00 in0.0 mm 0.00 in/hr0.0 mm/hr 0.00 in0.0 mm
01:55 AM 28.6°F-1.9°C 23.5°F-4.7°C 81% 2.0 mph ENE3.2 kmh ENE 2.9 mph4.7 kmh 30.21 in1023.0 mb 0.00 in0.0 mm 0.00 in/hr0.0 mm/hr 0.00 in0.0 mm
01:54 AM 28.6°F-1.9°C 23.5°F-4.7°C 81% 2.0 mph ENE3.2 kmh ENE 7.0 mph11.3 kmh 30.21 in1023.0 mb 0.00 in0.0 mm 0.00 in/hr0.0 mm/hr 0.00 in0.0 mm
01:53 AM 28.6°F-1.9°C 23.7°F-4.6°C 82% 0.9 mph ENE1.4 kmh ENE 6.0 mph9.7 kmh 30.21 in1023.0 mb 0.00 in0.0 mm 0.00 in/hr0.0 mm/hr 0.00 in0.0 mm
01:52 AM 28.6°F-1.9°C 23.7°F-4.6°C 82% 0.9 mph ESE1.4 kmh ESE 6.0 mph9.7 kmh 30.21 in1023.0 mb 0.00 in0.0 mm 0.00 in/hr0.0 mm/hr 0.00 in0.0 mm
01:51 AM 28.6°F-1.9°C 23.7°F-4.6°C 82% 0.9 mph E1.4 kmh E 6.0 mph9.7 kmh 30.21 in1023.0 mb 0.00 in0.0 mm 0.00 in/hr0.0 mm/hr 0.00 in0.0 mm
01:50 AM 28.6°F-1.9°C 23.7°F-4.6°C 82% 0.9 mph NE1.4 kmh NE 2.0 mph3.2 kmh 30.21 in1023.0 mb 0.00 in0.0 mm 0.00 in/hr0.0 mm/hr 0.00 in0.0 mm
01:49 AM 28.6°F-1.9°C 23.7°F-4.6°C 82% 0.9 mph E1.4 kmh E 2.9 mph4.7 kmh 30.21 in1023.0 mb 0.00 in0.0 mm 0.00 in/hr0.0 mm/hr 0.00 in0.0 mm
01:48 AM 28.6°F-1.9°C 23.7°F-4.6°C 82% 0.9 mph ENE1.4 kmh ENE 4.0 mph6.4 kmh 30.21 in1023.0 mb 0.00 in0.0 mm 0.00 in/hr0.0 mm/hr 0.00 in0.0 mm
01:47 AM 28.6°F-1.9°C 24.1°F-4.4°C 83% 0.9 mph S1.4 kmh S 2.9 mph4.7 kmh 30.21 in1023.0 mb 0.00 in0.0 mm 0.00 in/hr0.0 mm/hr 0.00 in0.0 mm
01:46 AM 28.6°F-1.9°C 24.1°F-4.4°C 83% 0.9 mph ENE1.4 kmh ENE 2.9 mph4.7 kmh 30.21 in1023.0 mb 0.00 in0.0 mm 0.00 in/hr0.0 mm/hr 0.00 in0.0 mm
01:45 AM 28.6°F-1.9°C 24.4°F-4.2°C 84% 0.9 mph SE1.4 kmh SE 2.9 mph4.7 kmh 30.21 in1023.0 mb 0.00 in0.0 mm 0.00 in/hr0.0 mm/hr 0.00 in0.0 mm
01:44 AM 28.8°F-1.8°C 24.6°F-4.1°C 84% 0.9 mph E1.4 kmh E 2.9 mph4.7 kmh 30.21 in1023.0 mb 0.00 in0.0 mm 0.00 in/hr0.0 mm/hr 0.00 in0.0 mm
01:43 AM 28.8°F-1.8°C 24.8°F-4.0°C 85% 0.9 mph SSE1.4 kmh SSE 2.0 mph3.2 kmh 30.21 in1023.0 mb 0.00 in0.0 mm 0.00 in/hr0.0 mm/hr 0.00 in0.0 mm
01:42 AM 28.8°F-1.8°C 24.8°F-4.0°C 85% 0.9 mph SE1.4 kmh SE 2.9 mph4.7 kmh 30.21 in1023.0 mb 0.00 in0.0 mm 0.00 in/hr0.0 mm/hr 0.00 in0.0 mm
01:41 AM 28.8°F-1.8°C 24.8°F-4.0°C 85% 0.9 mph E1.4 kmh E 0.9 mph1.4 kmh 30.21 in1023.0 mb 0.00 in0.0 mm 0.00 in/hr0.0 mm/hr 0.00 in0.0 mm
01:40 AM 28.8°F-1.8°C 24.8°F-4.0°C 85% 0.9 mph SE1.4 kmh SE 0.9 mph1.4 kmh 30.21 in1023.0 mb 0.00 in0.0 mm 0.00 in/hr0.0 mm/hr 0.00 in0.0 mm
01:39 AM 28.8°F-1.8°C 24.8°F-4.0°C 85% 0.9 mph SE1.4 kmh SE 0.9 mph1.4 kmh 30.21 in1023.0 mb 0.00 in0.0 mm 0.00 in/hr0.0 mm/hr 0.00 in0.0 mm
01:38 AM 28.8°F-1.8°C 24.8°F-4.0°C 85% 0.9 mph ENE1.4 kmh ENE 0.9 mph1.4 kmh 30.21 in1023.0 mb 0.00 in0.0 mm 0.00 in/hr0.0 mm/hr 0.00 in0.0 mm
01:37 AM 28.9°F-1.7°C 25.0°F-3.9°C 85% 0.9 mph SE1.4 kmh SE 4.0 mph6.4 kmh 30.21 in1023.0 mb 0.00 in0.0 mm 0.00 in/hr0.0 mm/hr 0.00 in0.0 mm
01:36 AM 28.9°F-1.7°C 25.0°F-3.9°C 85% 0.9 mph E1.4 kmh E 2.9 mph4.7 kmh 30.21 in1023.0 mb 0.00 in0.0 mm 0.00 in/hr0.0 mm/hr 0.00 in0.0 mm
01:35 AM 28.9°F-1.7°C 25.0°F-3.9°C 85% 0.9 mph SE1.4 kmh SE 2.9 mph4.7 kmh 30.21 in1023.0 mb 0.00 in0.0 mm 0.00 in/hr0.0 mm/hr 0.00 in0.0 mm
01:34 AM 28.9°F-1.7°C 25.0°F-3.9°C 85% 0.9 mph E1.4 kmh E 2.9 mph4.7 kmh 30.21 in1023.0 mb 0.00 in0.0 mm 0.00 in/hr0.0 mm/hr 0.00 in0.0 mm
01:33 AM 28.9°F-1.7°C 25.0°F-3.9°C 85% 0.9 mph E1.4 kmh E 2.0 mph3.2 kmh 30.21 in1023.0 mb 0.00 in0.0 mm 0.00 in/hr0.0 mm/hr 0.00 in0.0 mm
01:32 AM 28.9°F-1.7°C 25.0°F-3.9°C 85% 0.9 mph SE1.4 kmh SE 2.0 mph3.2 kmh 30.21 in1023.0 mb 0.00 in0.0 mm 0.00 in/hr0.0 mm/hr 0.00 in0.0 mm
01:31 AM 29.1°F-1.6°C 25.2°F-3.8°C 85% 0.9 mph ENE1.4 kmh ENE 2.9 mph4.7 kmh 30.21 in1023.0 mb 0.00 in0.0 mm 0.00 in/hr0.0 mm/hr 0.00 in0.0 mm
01:30 AM 29.1°F-1.6°C 25.2°F-3.8°C 85% 0.9 mph ENE1.4 kmh ENE 2.9 mph4.7 kmh 30.20 in1022.7 mb 0.00 in0.0 mm 0.00 in/hr0.0 mm/hr 0.00 in0.0 mm
01:29 AM 29.1°F-1.6°C 25.2°F-3.8°C 85% 0.9 mph SE1.4 kmh SE 0.9 mph1.4 kmh 30.20 in1022.7 mb 0.00 in0.0 mm 0.00 in/hr0.0 mm/hr 0.00 in0.0 mm
01:28 AM 29.1°F-1.6°C 25.2°F-3.8°C 85% 2.0 mph SSE3.2 kmh SSE 4.9 mph7.9 kmh 30.20 in1022.7 mb 0.00 in0.0 mm 0.00 in/hr0.0 mm/hr 0.00 in0.0 mm
01:27 AM 29.1°F-1.6°C 25.2°F-3.8°C 85% 2.0 mph SSE3.2 kmh SSE 2.9 mph4.7 kmh 30.20 in1022.7 mb 0.00 in0.0 mm 0.00 in/hr0.0 mm/hr 0.00 in0.0 mm
01:26 AM 29.3°F-1.5°C 25.3°F-3.7°C 85% 2.0 mph E3.2 kmh E 8.0 mph12.9 kmh 30.20 in1022.7 mb 0.00 in0.0 mm 0.00 in/hr0.0 mm/hr 0.00 in0.0 mm
01:25 AM 29.3°F-1.5°C 25.2°F-3.8°C 84% 2.0 mph E3.2 kmh E 8.0 mph12.9 kmh 30.20 in1022.7 mb 0.00 in0.0 mm 0.00 in/hr0.0 mm/hr 0.00 in0.0 mm
01:24 AM 29.5°F-1.4°C 25.2°F-3.8°C 84% 2.9 mph E4.7 kmh E 2.9 mph4.7 kmh 30.20 in1022.7 mb 0.00 in0.0 mm 0.00 in/hr0.0 mm/hr 0.00 in0.0 mm
01:23 AM 29.5°F-1.4°C 25.2°F-3.8°C 84% 2.0 mph SE3.2 kmh SE 6.0 mph9.7 kmh 30.20 in1022.7 mb 0.00 in0.0 mm 0.00 in/hr0.0 mm/hr 0.00 in0.0 mm
01:22 AM 29.5°F-1.4°C 25.2°F-3.8°C 84% 2.0 mph SE3.2 kmh SE 4.9 mph7.9 kmh 30.20 in1022.7 mb 0.00 in0.0 mm 0.00 in/hr0.0 mm/hr 0.00 in0.0 mm
01:21 AM 29.7°F-1.3°C 25.2°F-3.8°C 83% 2.0 mph SE3.2 kmh SE 2.9 mph4.7 kmh 30.20 in1022.7 mb 0.00 in0.0 mm 0.00 in/hr0.0 mm/hr 0.00 in0.0 mm
01:20 AM 29.7°F-1.3°C 25.2°F-3.8°C 83% 2.0 mph SE3.2 kmh SE 6.0 mph9.7 kmh 30.20 in1022.7 mb 0.00 in0.0 mm 0.00 in/hr0.0 mm/hr 0.00 in0.0 mm
01:19 AM 29.8°F-1.2°C 25.3°F-3.7°C 83% 2.0 mph E3.2 kmh E 6.0 mph9.7 kmh 30.20 in1022.7 mb 0.00 in0.0 mm 0.00 in/hr0.0 mm/hr 0.00 in0.0 mm
01:18 AM 29.8°F-1.2°C 25.3°F-3.7°C 83% 2.0 mph ESE3.2 kmh ESE 4.9 mph7.9 kmh 30.20 in1022.7 mb 0.00 in0.0 mm 0.00 in/hr0.0 mm/hr 0.00 in0.0 mm
01:17 AM 30.0°F-1.1°C 25.5°F-3.6°C 83% 2.0 mph ENE3.2 kmh ENE 6.9 mph11.1 kmh 30.20 in1022.7 mb 0.00 in0.0 mm 0.00 in/hr0.0 mm/hr 0.00 in0.0 mm
01:16 AM 30.2°F-1.0°C 25.9°F-3.4°C 84% 0.9 mph SE1.4 kmh SE 8.0 mph12.9 kmh 30.20 in1022.7 mb 0.00 in0.0 mm 0.00 in/hr0.0 mm/hr 0.00 in0.0 mm
01:15 AM 30.2°F-1.0°C 26.2°F-3.2°C 85% 0.9 mph SE1.4 kmh SE 8.0 mph12.9 kmh 30.19 in1022.4 mb 0.00 in0.0 mm 0.00 in/hr0.0 mm/hr 0.00 in0.0 mm
01:14 AM 30.2°F-1.0°C 26.2°F-3.2°C 85% 0.9 mph E1.4 kmh E 4.0 mph6.4 kmh 30.19 in1022.4 mb 0.00 in0.0 mm 0.00 in/hr0.0 mm/hr 0.00 in0.0 mm
01:13 AM 30.2°F-1.0°C 26.2°F-3.2°C 85% 0.9 mph SE1.4 kmh SE 2.9 mph4.7 kmh 30.19 in1022.4 mb 0.00 in0.0 mm 0.00 in/hr0.0 mm/hr 0.00 in0.0 mm
01:12 AM 30.2°F-1.0°C 26.2°F-3.2°C 85% 0.9 mph SE1.4 kmh SE 2.0 mph3.2 kmh 30.19 in1022.4 mb 0.00 in0.0 mm 0.00 in/hr0.0 mm/hr 0.00 in0.0 mm
01:11 AM 30.2°F-1.0°C 26.2°F-3.2°C 85% 0.9 mph SE1.4 kmh SE 2.0 mph3.2 kmh 30.19 in1022.4 mb 0.00 in0.0 mm 0.00 in/hr0.0 mm/hr 0.00 in0.0 mm
01:10 AM 30.2°F-1.0°C 26.2°F-3.2°C 85% 0.9 mph SSW1.4 kmh SSW 0.9 mph1.4 kmh 30.19 in1022.4 mb 0.00 in0.0 mm 0.00 in/hr0.0 mm/hr 0.00 in0.0 mm
01:09 AM 30.2°F-1.0°C 26.2°F-3.2°C 85% 0.9 mph SSE1.4 kmh SSE 2.9 mph4.7 kmh 30.19 in1022.4 mb 0.00 in0.0 mm 0.00 in/hr0.0 mm/hr 0.00 in0.0 mm
01:08 AM 30.4°F-0.9°C 26.4°F-3.1°C 85% 0.9 mph SE1.4 kmh SE 0.9 mph1.4 kmh 30.19 in1022.4 mb 0.00 in0.0 mm 0.00 in/hr0.0 mm/hr 0.00 in0.0 mm
01:07 AM 30.4°F-0.9°C 26.4°F-3.1°C 85% 0.9 mph S1.4 kmh S 0.9 mph1.4 kmh 30.19 in1022.4 mb 0.00 in0.0 mm 0.00 in/hr0.0 mm/hr 0.00 in0.0 mm
01:06 AM 30.4°F-0.9°C 26.4°F-3.1°C 85% 0.9 mph SE1.4 kmh SE 0.9 mph1.4 kmh 30.19 in1022.4 mb 0.00 in0.0 mm 0.00 in/hr0.0 mm/hr 0.00 in0.0 mm
01:05 AM 30.4°F-0.9°C 26.4°F-3.1°C 85% 0.9 mph ESE1.4 kmh ESE 0.9 mph1.4 kmh 30.19 in1022.4 mb 0.00 in0.0 mm 0.00 in/hr0.0 mm/hr 0.00 in0.0 mm
01:04 AM 30.4°F-0.9°C 26.4°F-3.1°C 85% 0.9 mph S1.4 kmh S 2.9 mph4.7 kmh 30.19 in1022.4 mb 0.00 in0.0 mm 0.00 in/hr0.0 mm/hr 0.00 in0.0 mm
01:03 AM 30.4°F-0.9°C 26.4°F-3.1°C 85% 0.9 mph S1.4 kmh S 2.0 mph3.2 kmh 30.19 in1022.4 mb 0.00 in0.0 mm 0.00 in/hr0.0 mm/hr 0.00 in0.0 mm
01:02 AM 30.4°F-0.9°C 26.4°F-3.1°C 85% 0.9 mph SSE1.4 kmh SSE 2.0 mph3.2 kmh 30.19 in1022.4 mb 0.00 in0.0 mm 0.00 in/hr0.0 mm/hr 0.00 in0.0 mm
01:01 AM 30.4°F-0.9°C 26.4°F-3.1°C 85% 0.9 mph ESE1.4 kmh ESE 4.0 mph6.4 kmh 30.19 in1022.4 mb 0.00 in0.0 mm 0.00 in/hr0.0 mm/hr 0.00 in0.0 mm
01:00 AM 30.4°F-0.9°C 26.4°F-3.1°C 85% 0.9 mph SSE1.4 kmh SSE 2.0 mph3.2 kmh 30.20 in1022.7 mb 0.00 in0.0 mm 0.00 in/hr0.0 mm/hr 0.00 in0.0 mm
12:59 AM 30.4°F-0.9°C 26.4°F-3.1°C 85% 0.9 mph SSE1.4 kmh SSE 2.0 mph3.2 kmh 30.20 in1022.7 mb 0.00 in0.0 mm 0.00 in/hr0.0 mm/hr 0.00 in0.0 mm
12:58 AM 30.4°F-0.9°C 26.4°F-3.1°C 85% 0.9 mph S1.4 kmh S 2.9 mph4.7 kmh 30.20 in1022.7 mb 0.00 in0.0 mm 0.00 in/hr0.0 mm/hr 0.00 in0.0 mm
12:57 AM 30.4°F-0.9°C 26.4°F-3.1°C 85% 0.9 mph E1.4 kmh E 0.9 mph1.4 kmh 30.20 in1022.7 mb 0.00 in0.0 mm 0.00 in/hr0.0 mm/hr 0.00 in0.0 mm
12:56 AM 30.4°F-0.9°C 26.1°F-3.3°C 84% 0.9 mph SE1.4 kmh SE 2.0 mph3.2 kmh 30.20 in1022.7 mb 0.00 in0.0 mm 0.00 in/hr0.0 mm/hr 0.00 in0.0 mm
12:55 AM 30.4°F-0.9°C 26.1°F-3.3°C 84% 0.9 mph SE1.4 kmh SE 2.0 mph3.2 kmh 30.20 in1022.7 mb 0.00 in0.0 mm 0.00 in/hr0.0 mm/hr 0.00 in0.0 mm
12:54 AM 30.4°F-0.9°C 26.1°F-3.3°C 84% 0.9 mph SE1.4 kmh SE 2.9 mph4.7 kmh 30.20 in1022.7 mb 0.00 in0.0 mm 0.00 in/hr0.0 mm/hr 0.00 in0.0 mm
12:53 AM 30.4°F-0.9°C 26.1°F-3.3°C 84% 0.9 mph S1.4 kmh S 2.9 mph4.7 kmh 30.20 in1022.7 mb 0.00 in0.0 mm 0.00 in/hr0.0 mm/hr 0.00 in0.0 mm
12:52 AM 30.6°F-0.8°C 26.2°F-3.2°C 84% 0.9 mph SE1.4 kmh SE 2.0 mph3.2 kmh 30.20 in1022.7 mb 0.00 in0.0 mm 0.00 in/hr0.0 mm/hr 0.00 in0.0 mm
12:51 AM 30.6°F-0.8°C 26.2°F-3.2°C 84% 0.9 mph ESE1.4 kmh ESE 2.0 mph3.2 kmh 30.20 in1022.7 mb 0.00 in0.0 mm 0.00 in/hr0.0 mm/hr 0.00 in0.0 mm
12:50 AM 30.6°F-0.8°C 26.2°F-3.2°C 84% 0.9 mph SE1.4 kmh SE 2.0 mph3.2 kmh 30.20 in1022.7 mb 0.00 in0.0 mm 0.00 in/hr0.0 mm/hr 0.00 in0.0 mm
12:49 AM 30.6°F-0.8°C 26.2°F-3.2°C 84% 0.9 mph SE1.4 kmh SE 0.9 mph1.4 kmh 30.20 in1022.7 mb 0.00 in0.0 mm 0.00 in/hr0.0 mm/hr 0.00 in0.0 mm
12:48 AM 30.6°F-0.8°C 26.2°F-3.2°C 84% Calm Calm 0.9 mph1.4 kmh 30.20 in1022.7 mb 0.00 in0.0 mm 0.00 in/hr0.0 mm/hr 0.00 in0.0 mm
12:47 AM 30.6°F-0.8°C 26.1°F-3.3°C 83% Calm Calm 0.9 mph1.4 kmh 30.20 in1022.7 mb 0.00 in0.0 mm 0.00 in/hr0.0 mm/hr 0.00 in0.0 mm
12:46 AM 30.6°F-0.8°C 26.2°F-3.2°C 84% Calm Calm 3.0 mph4.8 kmh 30.20 in1022.7 mb 0.00 in0.0 mm 0.00 in/hr0.0 mm/hr 0.00 in0.0 mm
12:45 AM 30.6°F-0.8°C 26.1°F-3.3°C 83% Calm Calm 3.0 mph4.8 kmh 30.19 in1022.4 mb 0.00 in0.0 mm 0.00 in/hr0.0 mm/hr 0.00 in0.0 mm
12:44 AM 30.6°F-0.8°C 26.1°F-3.3°C 83% Calm Calm 0.9 mph1.4 kmh 30.19 in1022.4 mb 0.00 in0.0 mm 0.00 in/hr0.0 mm/hr 0.00 in0.0 mm
12:43 AM 30.6°F-0.8°C 26.1°F-3.3°C 83% Calm Calm 0.9 mph1.4 kmh 30.19 in1022.4 mb 0.00 in0.0 mm 0.00 in/hr0.0 mm/hr 0.00 in0.0 mm
12:42 AM 30.6°F-0.8°C 26.1°F-3.3°C 83% Calm Calm 0.9 mph1.4 kmh 30.19 in1022.4 mb 0.00 in0.0 mm 0.00 in/hr0.0 mm/hr 0.00 in0.0 mm
12:41 AM 30.6°F-0.8°C 26.1°F-3.3°C 83% Calm Calm 2.0 mph3.2 kmh 30.19 in1022.4 mb 0.00 in0.0 mm 0.00 in/hr0.0 mm/hr 0.00 in0.0 mm
12:40 AM 30.6°F-0.8°C 26.1°F-3.3°C 83% Calm Calm 0.9 mph1.4 kmh 30.19 in1022.4 mb 0.00 in0.0 mm 0.00 in/hr0.0 mm/hr 0.00 in0.0 mm
12:39 AM 30.6°F-0.8°C 26.1°F-3.3°C 83% Calm Calm 2.0 mph3.2 kmh 30.19 in1022.4 mb 0.00 in0.0 mm 0.00 in/hr0.0 mm/hr 0.00 in0.0 mm
12:38 AM 30.7°F-0.7°C 26.2°F-3.2°C 83% 0.9 mph SSE1.4 kmh SSE 0.9 mph1.4 kmh 30.19 in1022.4 mb 0.00 in0.0 mm 0.00 in/hr0.0 mm/hr 0.00 in0.0 mm
12:37 AM 30.7°F-0.7°C 26.2°F-3.2°C 83% 0.9 mph SE1.4 kmh SE -- 30.19 in1022.4 mb 0.00 in0.0 mm 0.00 in/hr0.0 mm/hr 0.00 in0.0 mm
12:36 AM 30.7°F-0.7°C 26.2°F-3.2°C 83% 0.9 mph SE1.4 kmh SE -- 30.19 in1022.4 mb 0.00 in0.0 mm 0.00 in/hr0.0 mm/hr 0.00 in0.0 mm
12:35 AM 30.7°F-0.7°C 26.2°F-3.2°C 83% 0.9 mph SE1.4 kmh SE 0.9 mph1.4 kmh 30.19 in1022.4 mb 0.00 in0.0 mm 0.00 in/hr0.0 mm/hr 0.00 in0.0 mm
12:34 AM 30.7°F-0.7°C 26.2°F-3.2°C 83% 0.9 mph SE1.4 kmh SE 0.9 mph1.4 kmh 30.19 in1022.4 mb 0.00 in0.0 mm 0.00 in/hr0.0 mm/hr 0.00 in0.0 mm
12:33 AM 30.7°F-0.7°C 26.2°F-3.2°C 83% 0.9 mph SE1.4 kmh SE 2.0 mph3.2 kmh 30.19 in1022.4 mb 0.00 in0.0 mm 0.00 in/hr0.0 mm/hr 0.00 in0.0 mm
12:32 AM 30.7°F-0.7°C 25.9°F-3.4°C 82% 0.9 mph SSE1.4 kmh SSE 2.9 mph4.7 kmh 30.19 in1022.4 mb 0.00 in0.0 mm 0.00 in/hr0.0 mm/hr 0.00 in0.0 mm
12:31 AM 30.7°F-0.7°C 25.9°F-3.4°C 82% 0.9 mph SE1.4 kmh SE 2.0 mph3.2 kmh 30.19 in1022.4 mb 0.00 in0.0 mm 0.00 in/hr0.0 mm/hr 0.00 in0.0 mm
12:30 AM 30.7°F-0.7°C 25.9°F-3.4°C 82% 0.9 mph SE1.4 kmh SE 2.0 mph3.2 kmh 30.20 in1022.7 mb 0.00 in0.0 mm 0.00 in/hr0.0 mm/hr 0.00 in0.0 mm
12:29 AM 30.7°F-0.7°C 25.9°F-3.4°C 82% 0.9 mph SSE1.4 kmh SSE 2.9 mph4.7 kmh 30.20 in1022.7 mb 0.00 in0.0 mm 0.00 in/hr0.0 mm/hr 0.00 in0.0 mm
12:28 AM 30.7°F-0.7°C 25.9°F-3.4°C 82% 0.9 mph ESE1.4 kmh ESE 2.0 mph3.2 kmh 30.20 in1022.7 mb 0.00 in0.0 mm 0.00 in/hr0.0 mm/hr 0.00 in0.0 mm
12:27 AM 30.7°F-0.7°C 25.9°F-3.4°C 82% 0.9 mph SE1.4 kmh SE 2.9 mph4.7 kmh 30.20 in1022.7 mb 0.00 in0.0 mm 0.00 in/hr0.0 mm/hr 0.00 in0.0 mm
12:26 AM 30.7°F-0.7°C 25.9°F-3.4°C 82% 0.9 mph SE1.4 kmh SE 2.9 mph4.7 kmh 30.20 in1022.7 mb 0.00 in0.0 mm 0.00 in/hr0.0 mm/hr 0.00 in0.0 mm
12:25 AM 30.7°F-0.7°C 25.9°F-3.4°C 82% 0.9 mph SE1.4 kmh SE 2.9 mph4.7 kmh 30.20 in1022.7 mb 0.00 in0.0 mm 0.00 in/hr0.0 mm/hr 0.00 in0.0 mm
12:24 AM 30.7°F-0.7°C 25.9°F-3.4°C 82% 0.9 mph SE1.4 kmh SE 2.9 mph4.7 kmh 30.20 in1022.7 mb 0.00 in0.0 mm 0.00 in/hr0.0 mm/hr 0.00 in0.0 mm
12:23 AM 30.9°F-0.6°C 26.1°F-3.3°C 82% 0.9 mph S1.4 kmh S 2.9 mph4.7 kmh 30.20 in1022.7 mb 0.00 in0.0 mm 0.00 in/hr0.0 mm/hr 0.00 in0.0 mm
12:22 AM 30.9°F-0.6°C 26.1°F-3.3°C 82% 0.9 mph SE1.4 kmh SE 2.9 mph4.7 kmh 30.20 in1022.7 mb 0.00 in0.0 mm 0.00 in/hr0.0 mm/hr 0.00 in0.0 mm
12:21 AM 30.9°F-0.6°C 26.1°F-3.3°C 82% 0.9 mph S1.4 kmh S 2.0 mph3.2 kmh 30.20 in1022.7 mb 0.00 in0.0 mm 0.00 in/hr0.0 mm/hr 0.00 in0.0 mm
12:20 AM 30.9°F-0.6°C 25.7°F-3.5°C 81% 0.9 mph SSE1.4 kmh SSE 2.0 mph3.2 kmh 30.20 in1022.7 mb 0.00 in0.0 mm 0.00 in/hr0.0 mm/hr 0.00 in0.0 mm
12:19 AM 30.9°F-0.6°C 25.7°F-3.5°C 81% 0.9 mph SE1.4 kmh SE 2.0 mph3.2 kmh 30.20 in1022.7 mb 0.00 in0.0 mm 0.00 in/hr0.0 mm/hr 0.00 in0.0 mm
12:18 AM 30.9°F-0.6°C 25.7°F-3.5°C 81% 0.9 mph S1.4 kmh S 0.9 mph1.4 kmh 30.20 in1022.7 mb 0.00 in0.0 mm 0.00 in/hr0.0 mm/hr 0.00 in0.0 mm
12:17 AM 30.9°F-0.6°C 25.7°F-3.5°C 81% 0.9 mph SE1.4 kmh SE 2.0 mph3.2 kmh 30.20 in1022.7 mb 0.00 in0.0 mm 0.00 in/hr0.0 mm/hr 0.00 in0.0 mm
12:16 AM 30.9°F-0.6°C 25.7°F-3.5°C 81% 0.9 mph S1.4 kmh S 2.9 mph4.7 kmh 30.20 in1022.7 mb 0.00 in0.0 mm 0.00 in/hr0.0 mm/hr 0.00 in0.0 mm
12:15 AM 30.9°F-0.6°C 25.7°F-3.5°C 81% 0.9 mph SE1.4 kmh SE 2.0 mph3.2 kmh 30.19 in1022.4 mb 0.00 in0.0 mm 0.00 in/hr0.0 mm/hr 0.00 in0.0 mm
12:14 AM 30.9°F-0.6°C 25.7°F-3.5°C 81% 0.9 mph SSE1.4 kmh SSE 2.0 mph3.2 kmh 30.19 in1022.4 mb 0.00 in0.0 mm 0.00 in/hr0.0 mm/hr 0.00 in0.0 mm
12:13 AM 30.9°F-0.6°C 25.7°F-3.5°C 81% 0.9 mph SE1.4 kmh SE 0.9 mph1.4 kmh 30.19 in1022.4 mb 0.00 in0.0 mm 0.00 in/hr0.0 mm/hr 0.00 in0.0 mm
12:12 AM 30.9°F-0.6°C 25.7°F-3.5°C 81% 0.9 mph SE1.4 kmh SE 0.9 mph1.4 kmh 30.19 in1022.4 mb 0.00 in0.0 mm 0.00 in/hr0.0 mm/hr 0.00 in0.0 mm
12:11 AM 30.9°F-0.6°C 25.7°F-3.5°C 81% 0.9 mph SE1.4 kmh SE 2.0 mph3.2 kmh 30.19 in1022.4 mb 0.00 in0.0 mm 0.00 in/hr0.0 mm/hr 0.00 in0.0 mm
12:10 AM 30.9°F-0.6°C 25.7°F-3.5°C 81% 0.9 mph SSE1.4 kmh SSE 4.0 mph6.4 kmh 30.19 in1022.4 mb 0.00 in0.0 mm 0.00 in/hr0.0 mm/hr 0.00 in0.0 mm
12:09 AM 30.9°F-0.6°C 25.7°F-3.5°C 81% 0.9 mph S1.4 kmh S 4.0 mph6.4 kmh 30.19 in1022.4 mb 0.00 in0.0 mm 0.00 in/hr0.0 mm/hr 0.00 in0.0 mm
12:08 AM 30.9°F-0.6°C 25.7°F-3.5°C 81% 0.9 mph SE1.4 kmh SE 2.9 mph4.7 kmh 30.19 in1022.4 mb 0.00 in0.0 mm 0.00 in/hr0.0 mm/hr 0.00 in0.0 mm
12:07 AM 31.1°F-0.5°C 25.9°F-3.4°C 81% 0.9 mph SE1.4 kmh SE 4.0 mph6.4 kmh 30.19 in1022.4 mb 0.00 in0.0 mm 0.00 in/hr0.0 mm/hr 0.00 in0.0 mm
12:06 AM 30.9°F-0.6°C 25.7°F-3.5°C 81% 0.9 mph S1.4 kmh S 2.0 mph3.2 kmh 30.19 in1022.4 mb 0.00 in0.0 mm 0.00 in/hr0.0 mm/hr 0.00 in0.0 mm
12:05 AM 31.1°F-0.5°C 25.9°F-3.4°C 81% 0.9 mph S1.4 kmh S 2.0 mph3.2 kmh 30.19 in1022.4 mb 0.00 in0.0 mm 0.00 in/hr0.0 mm/hr 0.00 in0.0 mm
12:04 AM 31.1°F-0.5°C 25.9°F-3.4°C 81% 0.9 mph SSE1.4 kmh SSE 2.0 mph3.2 kmh 30.19 in1022.4 mb 0.00 in0.0 mm 0.00 in/hr0.0 mm/hr 0.00 in0.0 mm
12:03 AM 31.1°F-0.5°C 25.9°F-3.4°C 81% 0.9 mph S1.4 kmh S 2.0 mph3.2 kmh 30.19 in1022.4 mb 0.00 in0.0 mm 0.00 in/hr0.0 mm/hr 0.00 in0.0 mm
12:02 AM 31.1°F-0.5°C 25.9°F-3.4°C 81% 0.9 mph SE1.4 kmh SE 2.9 mph4.7 kmh 30.19 in1022.4 mb 0.00 in0.0 mm 0.00 in/hr0.0 mm/hr 0.00 in0.0 mm
12:01 AM 31.1°F-0.5°C 25.9°F-3.4°C 81% 0.9 mph S1.4 kmh S 2.0 mph3.2 kmh 30.19 in1022.4 mb 0.00 in0.0 mm 0.00 in/hr0.0 mm/hr 0.00 in0.0 mm
12:00 AM 31.1°F-0.5°C 25.9°F-3.4°C 81% 0.9 mph SSE1.4 kmh SSE 0.9 mph1.4 kmh 30.19 in1022.4 mb 0.00 in0.0 mm 0.00 in/hr0.0 mm/hr 0.00 in0.0 mm
WeatherForYou.com, LLC is not responsible for any damages or problems caused by this service. Current weather conditions are obtained from the closest station including government and personal stations which may have varying degrees of accuracy. Weather forecasts are derived from the NOAA NDFD and obtained through HAMweather's Aeris Weather API. Like all things, this site belongs to Jesus Christ... He just trusts me to maintain it. If you have any questions or comments email webmaster@weatherforyou.com

Copyright © 2014, WeatherForYou.com LLC. All rights reserved.